<?xml version="1.0" encoding="UTF-8" standalone="no" ?>
<gpx xmlns="http://www.topografix.com/GPX/1/1" xmlns:xsi="http://www.w3.org/2001/XMLSchema-instance" xsi:schemaLocation="http://www.topografix.com/GPX/1/1 http://www.topografix.com/GPX/1/1/gpx.xsd" version="1.1" creator="VisuGPX - https://www.visugpx.com">
  <metadata>
    <name>Chartreuse // Grande boucle du Rachais</name>
    <desc><![CDATA[Grande boucle du Mont Rachais au départ de la Casemate.]]></desc>
  </metadata>
  <trk>
    <name><![CDATA[20171201191537-BmksR]]></name>
    <trkseg>
      <trkpt lat="45.19774" lon="5.73185">
        <ele>221</ele>
        <time>2017-11-26T22:51:10Z</time>
      </trkpt>
      <trkpt lat="45.19774" lon="5.7317">
        <ele>221</ele>
        <time>2017-11-26T22:53:10Z</time>
      </trkpt>
      <trkpt lat="45.19776" lon="5.73154">
        <ele>230</ele>
        <time>2017-11-26T22:55:10Z</time>
      </trkpt>
      <trkpt lat="45.19783" lon="5.73133">
        <ele>233</ele>
        <time>2017-11-26T22:57:10Z</time>
      </trkpt>
      <trkpt lat="45.19792" lon="5.73129">
        <ele>234</ele>
        <time>2017-11-26T22:59:10Z</time>
      </trkpt>
      <trkpt lat="45.19804" lon="5.73128">
        <ele>236</ele>
        <time>2017-11-26T23:01:10Z</time>
      </trkpt>
      <trkpt lat="45.19805" lon="5.73124">
        <ele>236</ele>
        <time>2017-11-26T23:03:10Z</time>
      </trkpt>
      <trkpt lat="45.19803" lon="5.73122">
        <ele>236</ele>
        <time>2017-11-26T23:05:10Z</time>
      </trkpt>
      <trkpt lat="45.19792" lon="5.7312">
        <ele>235</ele>
        <time>2017-11-26T23:07:10Z</time>
      </trkpt>
      <trkpt lat="45.19775" lon="5.73107">
        <ele>234</ele>
        <time>2017-11-26T23:09:10Z</time>
      </trkpt>
      <trkpt lat="45.19759" lon="5.73091">
        <ele>232</ele>
        <time>2017-11-26T23:11:10Z</time>
      </trkpt>
      <trkpt lat="45.1976" lon="5.73087">
        <ele>232</ele>
        <time>2017-11-26T23:13:10Z</time>
      </trkpt>
      <trkpt lat="45.19762" lon="5.73087">
        <ele>232</ele>
        <time>2017-11-26T23:15:10Z</time>
      </trkpt>
      <trkpt lat="45.19761" lon="5.73087">
        <ele>232</ele>
        <time>2017-11-26T23:17:10Z</time>
      </trkpt>
      <trkpt lat="45.19776" lon="5.73092">
        <ele>235</ele>
        <time>2017-11-26T23:19:10Z</time>
      </trkpt>
      <trkpt lat="45.19799" lon="5.73098">
        <ele>239</ele>
        <time>2017-11-26T23:21:10Z</time>
      </trkpt>
      <trkpt lat="45.19803" lon="5.73098">
        <ele>240</ele>
        <time>2017-11-26T23:23:10Z</time>
      </trkpt>
      <trkpt lat="45.19806" lon="5.73096">
        <ele>241</ele>
        <time>2017-11-26T23:25:10Z</time>
      </trkpt>
      <trkpt lat="45.19806" lon="5.73094">
        <ele>241</ele>
        <time>2017-11-26T23:27:10Z</time>
      </trkpt>
      <trkpt lat="45.19752" lon="5.73057">
        <ele>248</ele>
        <time>2017-11-26T23:29:10Z</time>
      </trkpt>
      <trkpt lat="45.19749" lon="5.73052">
        <ele>239</ele>
        <time>2017-11-26T23:31:10Z</time>
      </trkpt>
      <trkpt lat="45.19752" lon="5.73051">
        <ele>250</ele>
        <time>2017-11-26T23:33:10Z</time>
      </trkpt>
      <trkpt lat="45.19796" lon="5.73063">
        <ele>254</ele>
        <time>2017-11-26T23:35:10Z</time>
      </trkpt>
      <trkpt lat="45.19798" lon="5.73062">
        <ele>254</ele>
        <time>2017-11-26T23:37:10Z</time>
      </trkpt>
      <trkpt lat="45.19796" lon="5.73058">
        <ele>255</ele>
        <time>2017-11-26T23:39:10Z</time>
      </trkpt>
      <trkpt lat="45.19763" lon="5.73036">
        <ele>255</ele>
        <time>2017-11-26T23:41:10Z</time>
      </trkpt>
      <trkpt lat="45.19762" lon="5.73036">
        <ele>255</ele>
        <time>2017-11-26T23:43:10Z</time>
      </trkpt>
      <trkpt lat="45.19755" lon="5.73031">
        <ele>256</ele>
        <time>2017-11-26T23:45:10Z</time>
      </trkpt>
      <trkpt lat="45.19755" lon="5.73028">
        <ele>256</ele>
        <time>2017-11-26T23:47:10Z</time>
      </trkpt>
      <trkpt lat="45.19758" lon="5.73027">
        <ele>257</ele>
        <time>2017-11-26T23:49:10Z</time>
      </trkpt>
      <trkpt lat="45.19806" lon="5.73042">
        <ele>258</ele>
        <time>2017-11-26T23:51:10Z</time>
      </trkpt>
      <trkpt lat="45.19805" lon="5.73036">
        <ele>259</ele>
        <time>2017-11-26T23:53:10Z</time>
      </trkpt>
      <trkpt lat="45.19766" lon="5.73011">
        <ele>260</ele>
        <time>2017-11-26T23:55:10Z</time>
      </trkpt>
      <trkpt lat="45.19765" lon="5.73007">
        <ele>260</ele>
        <time>2017-11-26T23:57:10Z</time>
      </trkpt>
      <trkpt lat="45.19767" lon="5.73006">
        <ele>260</ele>
        <time>2017-11-26T23:59:10Z</time>
      </trkpt>
      <trkpt lat="45.19778" lon="5.7301">
        <ele>260</ele>
        <time>2017-11-27T00:01:10Z</time>
      </trkpt>
      <trkpt lat="45.19777" lon="5.7301">
        <ele>260</ele>
        <time>2017-11-27T00:03:10Z</time>
      </trkpt>
      <trkpt lat="45.19809" lon="5.73023">
        <ele>262</ele>
        <time>2017-11-27T00:05:10Z</time>
      </trkpt>
      <trkpt lat="45.19812" lon="5.73022">
        <ele>263</ele>
        <time>2017-11-27T00:07:10Z</time>
      </trkpt>
      <trkpt lat="45.19812" lon="5.73019">
        <ele>263</ele>
        <time>2017-11-27T00:09:10Z</time>
      </trkpt>
      <trkpt lat="45.19791" lon="5.73005">
        <ele>261</ele>
        <time>2017-11-27T00:11:10Z</time>
      </trkpt>
      <trkpt lat="45.19774" lon="5.72989">
        <ele>280</ele>
        <time>2017-11-27T00:13:10Z</time>
      </trkpt>
      <trkpt lat="45.1976" lon="5.7297">
        <ele>283</ele>
        <time>2017-11-27T00:15:10Z</time>
      </trkpt>
      <trkpt lat="45.19693" lon="5.72858">
        <ele>293</ele>
        <time>2017-11-27T00:17:10Z</time>
      </trkpt>
      <trkpt lat="45.19692" lon="5.72852">
        <ele>294</ele>
        <time>2017-11-27T00:19:10Z</time>
      </trkpt>
      <trkpt lat="45.19693" lon="5.7285">
        <ele>294</ele>
        <time>2017-11-27T00:21:10Z</time>
      </trkpt>
      <trkpt lat="45.19697" lon="5.72851">
        <ele>295</ele>
        <time>2017-11-27T00:23:10Z</time>
      </trkpt>
      <trkpt lat="45.19712" lon="5.72867">
        <ele>297</ele>
        <time>2017-11-27T00:25:10Z</time>
      </trkpt>
      <trkpt lat="45.19711" lon="5.72867">
        <ele>296</ele>
        <time>2017-11-27T00:27:10Z</time>
      </trkpt>
      <trkpt lat="45.19794" lon="5.7292">
        <ele>297</ele>
        <time>2017-11-27T00:29:10Z</time>
      </trkpt>
      <trkpt lat="45.19797" lon="5.7292">
        <ele>298</ele>
        <time>2017-11-27T00:31:10Z</time>
      </trkpt>
      <trkpt lat="45.19798" lon="5.72918">
        <ele>298</ele>
        <time>2017-11-27T00:33:10Z</time>
      </trkpt>
      <trkpt lat="45.19797" lon="5.72916">
        <ele>320</ele>
        <time>2017-11-27T00:35:10Z</time>
      </trkpt>
      <trkpt lat="45.19768" lon="5.72877">
        <ele>322</ele>
        <time>2017-11-27T00:37:10Z</time>
      </trkpt>
      <trkpt lat="45.19767" lon="5.72877">
        <ele>322</ele>
        <time>2017-11-27T00:39:10Z</time>
      </trkpt>
      <trkpt lat="45.19744" lon="5.72845">
        <ele>312</ele>
        <time>2017-11-27T00:41:10Z</time>
      </trkpt>
      <trkpt lat="45.19743" lon="5.72841">
        <ele>314</ele>
        <time>2017-11-27T00:43:10Z</time>
      </trkpt>
      <trkpt lat="45.1975" lon="5.72841">
        <ele>316</ele>
        <time>2017-11-27T00:45:10Z</time>
      </trkpt>
      <trkpt lat="45.19763" lon="5.72852">
        <ele>325</ele>
        <time>2017-11-27T00:47:10Z</time>
      </trkpt>
      <trkpt lat="45.19812" lon="5.72881">
        <ele>326</ele>
        <time>2017-11-27T00:49:10Z</time>
      </trkpt>
      <trkpt lat="45.19812" lon="5.72879">
        <ele>327</ele>
        <time>2017-11-27T00:51:10Z</time>
      </trkpt>
      <trkpt lat="45.19781" lon="5.72842">
        <ele>328</ele>
        <time>2017-11-27T00:53:10Z</time>
      </trkpt>
      <trkpt lat="45.19781" lon="5.72841">
        <ele>328</ele>
        <time>2017-11-27T00:55:10Z</time>
      </trkpt>
      <trkpt lat="45.19759" lon="5.72815">
        <ele>345</ele>
        <time>2017-11-27T00:57:10Z</time>
      </trkpt>
      <trkpt lat="45.19755" lon="5.72809">
        <ele>347</ele>
        <time>2017-11-27T00:59:10Z</time>
      </trkpt>
      <trkpt lat="45.19755" lon="5.72805">
        <ele>350</ele>
        <time>2017-11-27T01:01:10Z</time>
      </trkpt>
      <trkpt lat="45.19757" lon="5.72805">
        <ele>350</ele>
        <time>2017-11-27T01:03:10Z</time>
      </trkpt>
      <trkpt lat="45.19823" lon="5.72848">
        <ele>340</ele>
        <time>2017-11-27T01:05:10Z</time>
      </trkpt>
      <trkpt lat="45.19825" lon="5.72847">
        <ele>341</ele>
        <time>2017-11-27T01:07:10Z</time>
      </trkpt>
      <trkpt lat="45.19825" lon="5.72845">
        <ele>343</ele>
        <time>2017-11-27T01:09:10Z</time>
      </trkpt>
      <trkpt lat="45.198" lon="5.72822">
        <ele>358</ele>
        <time>2017-11-27T01:11:10Z</time>
      </trkpt>
      <trkpt lat="45.19799" lon="5.72822">
        <ele>358</ele>
        <time>2017-11-27T01:13:10Z</time>
      </trkpt>
      <trkpt lat="45.19792" lon="5.72815">
        <ele>357</ele>
        <time>2017-11-27T01:15:10Z</time>
      </trkpt>
      <trkpt lat="45.19791" lon="5.72811">
        <ele>358</ele>
        <time>2017-11-27T01:17:10Z</time>
      </trkpt>
      <trkpt lat="45.19792" lon="5.72809">
        <ele>358</ele>
        <time>2017-11-27T01:19:10Z</time>
      </trkpt>
      <trkpt lat="45.19816" lon="5.72828">
        <ele>359</ele>
        <time>2017-11-27T01:21:10Z</time>
      </trkpt>
      <trkpt lat="45.19834" lon="5.72836">
        <ele>356</ele>
        <time>2017-11-27T01:23:10Z</time>
      </trkpt>
      <trkpt lat="45.19835" lon="5.72834">
        <ele>357</ele>
        <time>2017-11-27T01:25:10Z</time>
      </trkpt>
      <trkpt lat="45.19834" lon="5.72831">
        <ele>361</ele>
        <time>2017-11-27T01:27:10Z</time>
      </trkpt>
      <trkpt lat="45.19821" lon="5.72822">
        <ele>360</ele>
        <time>2017-11-27T01:29:10Z</time>
      </trkpt>
      <trkpt lat="45.19815" lon="5.72813">
        <ele>362</ele>
        <time>2017-11-27T01:31:10Z</time>
      </trkpt>
      <trkpt lat="45.19818" lon="5.72812">
        <ele>362</ele>
        <time>2017-11-27T01:33:10Z</time>
      </trkpt>
      <trkpt lat="45.19823" lon="5.72816">
        <ele>362</ele>
        <time>2017-11-27T01:35:10Z</time>
      </trkpt>
      <trkpt lat="45.19823" lon="5.72815">
        <ele>362</ele>
        <time>2017-11-27T01:37:10Z</time>
      </trkpt>
      <trkpt lat="45.19844" lon="5.72831">
        <ele>371</ele>
        <time>2017-11-27T01:39:10Z</time>
      </trkpt>
      <trkpt lat="45.19846" lon="5.7283">
        <ele>373</ele>
        <time>2017-11-27T01:41:10Z</time>
      </trkpt>
      <trkpt lat="45.19846" lon="5.72826">
        <ele>375</ele>
        <time>2017-11-27T01:43:10Z</time>
      </trkpt>
      <trkpt lat="45.19832" lon="5.72811">
        <ele>363</ele>
        <time>2017-11-27T01:45:10Z</time>
      </trkpt>
      <trkpt lat="45.19831" lon="5.72811">
        <ele>363</ele>
        <time>2017-11-27T01:47:10Z</time>
      </trkpt>
      <trkpt lat="45.19798" lon="5.72779">
        <ele>368</ele>
        <time>2017-11-27T01:49:10Z</time>
      </trkpt>
      <trkpt lat="45.19798" lon="5.72776">
        <ele>369</ele>
        <time>2017-11-27T01:51:10Z</time>
      </trkpt>
      <trkpt lat="45.19799" lon="5.72775">
        <ele>370</ele>
        <time>2017-11-27T01:53:10Z</time>
      </trkpt>
      <trkpt lat="45.19802" lon="5.72776">
        <ele>371</ele>
        <time>2017-11-27T01:55:10Z</time>
      </trkpt>
      <trkpt lat="45.19817" lon="5.72786">
        <ele>371</ele>
        <time>2017-11-27T01:57:10Z</time>
      </trkpt>
      <trkpt lat="45.19817" lon="5.72785">
        <ele>372</ele>
        <time>2017-11-27T01:59:10Z</time>
      </trkpt>
      <trkpt lat="45.19845" lon="5.72803">
        <ele>388</ele>
        <time>2017-11-27T02:01:10Z</time>
      </trkpt>
      <trkpt lat="45.19846" lon="5.72801">
        <ele>389</ele>
        <time>2017-11-27T02:03:10Z</time>
      </trkpt>
      <trkpt lat="45.19821" lon="5.72778">
        <ele>377</ele>
        <time>2017-11-27T02:05:10Z</time>
      </trkpt>
      <trkpt lat="45.19814" lon="5.72768">
        <ele>379</ele>
        <time>2017-11-27T02:07:10Z</time>
      </trkpt>
      <trkpt lat="45.19813" lon="5.72768">
        <ele>379</ele>
        <time>2017-11-27T02:09:10Z</time>
      </trkpt>
      <trkpt lat="45.19792" lon="5.72736">
        <ele>398</ele>
        <time>2017-11-27T02:11:10Z</time>
      </trkpt>
      <trkpt lat="45.19791" lon="5.72733">
        <ele>398</ele>
        <time>2017-11-27T02:13:10Z</time>
      </trkpt>
      <trkpt lat="45.19792" lon="5.72731">
        <ele>398</ele>
        <time>2017-11-27T02:15:10Z</time>
      </trkpt>
      <trkpt lat="45.19801" lon="5.72735">
        <ele>401</ele>
        <time>2017-11-27T02:17:10Z</time>
      </trkpt>
      <trkpt lat="45.19818" lon="5.72753">
        <ele>390</ele>
        <time>2017-11-27T02:19:10Z</time>
      </trkpt>
      <trkpt lat="45.19832" lon="5.72763">
        <ele>393</ele>
        <time>2017-11-27T02:21:10Z</time>
      </trkpt>
      <trkpt lat="45.19831" lon="5.72763">
        <ele>392</ele>
        <time>2017-11-27T02:23:10Z</time>
      </trkpt>
      <trkpt lat="45.19854" lon="5.72778">
        <ele>399</ele>
        <time>2017-11-27T02:25:10Z</time>
      </trkpt>
      <trkpt lat="45.19854" lon="5.72775">
        <ele>400</ele>
        <time>2017-11-27T02:27:10Z</time>
      </trkpt>
      <trkpt lat="45.19848" lon="5.72766">
        <ele>403</ele>
        <time>2017-11-27T02:29:10Z</time>
      </trkpt>
      <trkpt lat="45.19857" lon="5.72774">
        <ele>401</ele>
        <time>2017-11-27T02:31:10Z</time>
      </trkpt>
      <trkpt lat="45.19854" lon="5.7277">
        <ele>402</ele>
        <time>2017-11-27T02:33:10Z</time>
      </trkpt>
      <trkpt lat="45.19855" lon="5.72768">
        <ele>402</ele>
        <time>2017-11-27T02:35:10Z</time>
      </trkpt>
      <trkpt lat="45.19858" lon="5.72773">
        <ele>401</ele>
        <time>2017-11-27T02:37:10Z</time>
      </trkpt>
      <trkpt lat="45.1986" lon="5.72771">
        <ele>402</ele>
        <time>2017-11-27T02:39:10Z</time>
      </trkpt>
      <trkpt lat="45.19853" lon="5.72763">
        <ele>404</ele>
        <time>2017-11-27T02:41:10Z</time>
      </trkpt>
      <trkpt lat="45.19854" lon="5.72754">
        <ele>406</ele>
        <time>2017-11-27T02:43:10Z</time>
      </trkpt>
      <trkpt lat="45.19856" lon="5.72754">
        <ele>405</ele>
        <time>2017-11-27T02:45:10Z</time>
      </trkpt>
      <trkpt lat="45.19857" lon="5.72764">
        <ele>403</ele>
        <time>2017-11-27T02:47:10Z</time>
      </trkpt>
      <trkpt lat="45.19857" lon="5.72741">
        <ele>429</ele>
        <time>2017-11-27T02:49:10Z</time>
      </trkpt>
      <trkpt lat="45.19854" lon="5.72735">
        <ele>429</ele>
        <time>2017-11-27T02:51:10Z</time>
      </trkpt>
      <trkpt lat="45.19847" lon="5.72735">
        <ele>427</ele>
        <time>2017-11-27T02:53:10Z</time>
      </trkpt>
      <trkpt lat="45.19842" lon="5.72748">
        <ele>421</ele>
        <time>2017-11-27T02:55:10Z</time>
      </trkpt>
      <trkpt lat="45.19834" lon="5.72739">
        <ele>422</ele>
        <time>2017-11-27T02:57:10Z</time>
      </trkpt>
      <trkpt lat="45.19835" lon="5.72727">
        <ele>428</ele>
        <time>2017-11-27T02:59:10Z</time>
      </trkpt>
      <trkpt lat="45.19831" lon="5.72719">
        <ele>410</ele>
        <time>2017-11-27T03:01:10Z</time>
      </trkpt>
      <trkpt lat="45.19788" lon="5.7268">
        <ele>407</ele>
        <time>2017-11-27T03:03:10Z</time>
      </trkpt>
      <trkpt lat="45.19778" lon="5.7267">
        <ele>405</ele>
        <time>2017-11-27T03:05:10Z</time>
      </trkpt>
      <trkpt lat="45.19765" lon="5.7265">
        <ele>416</ele>
        <time>2017-11-27T03:07:10Z</time>
      </trkpt>
      <trkpt lat="45.19758" lon="5.72623">
        <ele>421</ele>
        <time>2017-11-27T03:09:10Z</time>
      </trkpt>
      <trkpt lat="45.19747" lon="5.72589">
        <ele>407</ele>
        <time>2017-11-27T03:11:10Z</time>
      </trkpt>
      <trkpt lat="45.19746" lon="5.72557">
        <ele>399</ele>
        <time>2017-11-27T03:13:10Z</time>
      </trkpt>
      <trkpt lat="45.19751" lon="5.72526">
        <ele>421</ele>
        <time>2017-11-27T03:15:10Z</time>
      </trkpt>
      <trkpt lat="45.19757" lon="5.72517">
        <ele>418</ele>
        <time>2017-11-27T03:17:10Z</time>
      </trkpt>
      <trkpt lat="45.19764" lon="5.7251">
        <ele>418</ele>
        <time>2017-11-27T03:19:10Z</time>
      </trkpt>
      <trkpt lat="45.19772" lon="5.72503">
        <ele>422</ele>
        <time>2017-11-27T03:21:10Z</time>
      </trkpt>
      <trkpt lat="45.19775" lon="5.72502">
        <ele>424</ele>
        <time>2017-11-27T03:23:10Z</time>
      </trkpt>
      <trkpt lat="45.19764" lon="5.72529">
        <ele>424</ele>
        <time>2017-11-27T03:25:10Z</time>
      </trkpt>
      <trkpt lat="45.19766" lon="5.72582">
        <ele>423</ele>
        <time>2017-11-27T03:27:10Z</time>
      </trkpt>
      <trkpt lat="45.19767" lon="5.72585">
        <ele>421</ele>
        <time>2017-11-27T03:29:10Z</time>
      </trkpt>
      <trkpt lat="45.1977" lon="5.72584">
        <ele>422</ele>
        <time>2017-11-27T03:31:10Z</time>
      </trkpt>
      <trkpt lat="45.19779" lon="5.72538">
        <ele>429</ele>
        <time>2017-11-27T03:33:10Z</time>
      </trkpt>
      <trkpt lat="45.19784" lon="5.72528">
        <ele>430</ele>
        <time>2017-11-27T03:35:10Z</time>
      </trkpt>
      <trkpt lat="45.19787" lon="5.72526">
        <ele>431</ele>
        <time>2017-11-27T03:37:10Z</time>
      </trkpt>
      <trkpt lat="45.19789" lon="5.72528">
        <ele>432</ele>
        <time>2017-11-27T03:39:10Z</time>
      </trkpt>
      <trkpt lat="45.19787" lon="5.72596">
        <ele>428</ele>
        <time>2017-11-27T03:41:10Z</time>
      </trkpt>
      <trkpt lat="45.19792" lon="5.72621">
        <ele>428</ele>
        <time>2017-11-27T03:43:10Z</time>
      </trkpt>
      <trkpt lat="45.19835" lon="5.72664">
        <ele>444</ele>
        <time>2017-11-27T03:45:10Z</time>
      </trkpt>
      <trkpt lat="45.19859" lon="5.72691">
        <ele>439</ele>
        <time>2017-11-27T03:47:10Z</time>
      </trkpt>
      <trkpt lat="45.19861" lon="5.72688">
        <ele>440</ele>
        <time>2017-11-27T03:49:10Z</time>
      </trkpt>
      <trkpt lat="45.19861" lon="5.72685">
        <ele>440</ele>
        <time>2017-11-27T03:51:10Z</time>
      </trkpt>
      <trkpt lat="45.19844" lon="5.72659">
        <ele>449</ele>
        <time>2017-11-27T03:53:10Z</time>
      </trkpt>
      <trkpt lat="45.19833" lon="5.72635">
        <ele>435</ele>
        <time>2017-11-27T03:55:10Z</time>
      </trkpt>
      <trkpt lat="45.19826" lon="5.72609">
        <ele>438</ele>
        <time>2017-11-27T03:57:10Z</time>
      </trkpt>
      <trkpt lat="45.19823" lon="5.72515">
        <ele>446</ele>
        <time>2017-11-27T03:59:10Z</time>
      </trkpt>
      <trkpt lat="45.19827" lon="5.7249">
        <ele>447</ele>
        <time>2017-11-27T04:01:10Z</time>
      </trkpt>
      <trkpt lat="45.19834" lon="5.72458">
        <ele>461</ele>
        <time>2017-11-27T04:03:10Z</time>
      </trkpt>
      <trkpt lat="45.19838" lon="5.72446">
        <ele>460</ele>
        <time>2017-11-27T04:05:10Z</time>
      </trkpt>
      <trkpt lat="45.19842" lon="5.72442">
        <ele>459</ele>
        <time>2017-11-27T04:07:10Z</time>
      </trkpt>
      <trkpt lat="45.19844" lon="5.72442">
        <ele>459</ele>
        <time>2017-11-27T04:09:10Z</time>
      </trkpt>
      <trkpt lat="45.19847" lon="5.72444">
        <ele>460</ele>
        <time>2017-11-27T04:11:10Z</time>
      </trkpt>
      <trkpt lat="45.19848" lon="5.72449">
        <ele>461</ele>
        <time>2017-11-27T04:13:10Z</time>
      </trkpt>
      <trkpt lat="45.19855" lon="5.72555">
        <ele>465</ele>
        <time>2017-11-27T04:15:10Z</time>
      </trkpt>
      <trkpt lat="45.19858" lon="5.72556">
        <ele>466</ele>
        <time>2017-11-27T04:17:10Z</time>
      </trkpt>
      <trkpt lat="45.19858" lon="5.72528">
        <ele>467</ele>
        <time>2017-11-27T04:19:10Z</time>
      </trkpt>
      <trkpt lat="45.19857" lon="5.72528">
        <ele>467</ele>
        <time>2017-11-27T04:21:10Z</time>
      </trkpt>
      <trkpt lat="45.19856" lon="5.72491">
        <ele>464</ele>
        <time>2017-11-27T04:23:10Z</time>
      </trkpt>
      <trkpt lat="45.19866" lon="5.72484">
        <ele>466</ele>
        <time>2017-11-27T04:25:10Z</time>
      </trkpt>
      <trkpt lat="45.19885" lon="5.72475">
        <ele>468</ele>
        <time>2017-11-27T04:27:10Z</time>
      </trkpt>
      <trkpt lat="45.19892" lon="5.72442">
        <ele>467</ele>
        <time>2017-11-27T04:29:10Z</time>
      </trkpt>
      <trkpt lat="45.19898" lon="5.72438">
        <ele>467</ele>
        <time>2017-11-27T04:31:10Z</time>
      </trkpt>
      <trkpt lat="45.1994" lon="5.72423">
        <ele>473</ele>
        <time>2017-11-27T04:33:10Z</time>
      </trkpt>
      <trkpt lat="45.19951" lon="5.72423">
        <ele>473</ele>
        <time>2017-11-27T04:35:10Z</time>
      </trkpt>
      <trkpt lat="45.1995" lon="5.72423">
        <ele>473</ele>
        <time>2017-11-27T04:37:10Z</time>
      </trkpt>
      <trkpt lat="45.19985" lon="5.72424">
        <ele>469</ele>
        <time>2017-11-27T04:39:10Z</time>
      </trkpt>
      <trkpt lat="45.20055" lon="5.72431">
        <ele>479</ele>
        <time>2017-11-27T04:41:10Z</time>
      </trkpt>
      <trkpt lat="45.20064" lon="5.72435">
        <ele>480</ele>
        <time>2017-11-27T04:43:10Z</time>
      </trkpt>
      <trkpt lat="45.2007" lon="5.72441">
        <ele>481</ele>
        <time>2017-11-27T04:45:10Z</time>
      </trkpt>
      <trkpt lat="45.20072" lon="5.72449">
        <ele>481</ele>
        <time>2017-11-27T04:47:10Z</time>
      </trkpt>
      <trkpt lat="45.20075" lon="5.72466">
        <ele>483</ele>
        <time>2017-11-27T04:49:10Z</time>
      </trkpt>
      <trkpt lat="45.20068" lon="5.72515">
        <ele>487</ele>
        <time>2017-11-27T04:51:10Z</time>
      </trkpt>
      <trkpt lat="45.2007" lon="5.72528">
        <ele>486</ele>
        <time>2017-11-27T04:53:10Z</time>
      </trkpt>
      <trkpt lat="45.20079" lon="5.72545">
        <ele>485</ele>
        <time>2017-11-27T04:55:10Z</time>
      </trkpt>
      <trkpt lat="45.20103" lon="5.72542">
        <ele>496</ele>
        <time>2017-11-27T04:57:10Z</time>
      </trkpt>
      <trkpt lat="45.20148" lon="5.72557">
        <ele>501</ele>
        <time>2017-11-27T04:59:10Z</time>
      </trkpt>
      <trkpt lat="45.20147" lon="5.72557">
        <ele>501</ele>
        <time>2017-11-27T05:01:10Z</time>
      </trkpt>
      <trkpt lat="45.20162" lon="5.72562">
        <ele>502</ele>
        <time>2017-11-27T05:03:10Z</time>
      </trkpt>
      <trkpt lat="45.20237" lon="5.72607">
        <ele>512</ele>
        <time>2017-11-27T05:05:10Z</time>
      </trkpt>
      <trkpt lat="45.20253" lon="5.72609">
        <ele>528</ele>
        <time>2017-11-27T05:07:10Z</time>
      </trkpt>
      <trkpt lat="45.20282" lon="5.72604">
        <ele>531</ele>
        <time>2017-11-27T05:09:10Z</time>
      </trkpt>
      <trkpt lat="45.20295" lon="5.72605">
        <ele>533</ele>
        <time>2017-11-27T05:11:10Z</time>
      </trkpt>
      <trkpt lat="45.20294" lon="5.72605">
        <ele>533</ele>
        <time>2017-11-27T05:13:10Z</time>
      </trkpt>
      <trkpt lat="45.20323" lon="5.72612">
        <ele>537</ele>
        <time>2017-11-27T05:15:10Z</time>
      </trkpt>
      <trkpt lat="45.20333" lon="5.72618">
        <ele>536</ele>
        <time>2017-11-27T05:17:10Z</time>
      </trkpt>
      <trkpt lat="45.20361" lon="5.72639">
        <ele>556</ele>
        <time>2017-11-27T05:19:10Z</time>
      </trkpt>
      <trkpt lat="45.20375" lon="5.72653">
        <ele>558</ele>
        <time>2017-11-27T05:21:10Z</time>
      </trkpt>
      <trkpt lat="45.20414" lon="5.72699">
        <ele>537</ele>
        <time>2017-11-27T05:23:10Z</time>
      </trkpt>
      <trkpt lat="45.20429" lon="5.72709">
        <ele>553</ele>
        <time>2017-11-27T05:25:10Z</time>
      </trkpt>
      <trkpt lat="45.20456" lon="5.72718">
        <ele>555</ele>
        <time>2017-11-27T05:27:10Z</time>
      </trkpt>
      <trkpt lat="45.20461" lon="5.72718">
        <ele>556</ele>
        <time>2017-11-27T05:29:10Z</time>
      </trkpt>
      <trkpt lat="45.20496" lon="5.72729">
        <ele>556</ele>
        <time>2017-11-27T05:31:10Z</time>
      </trkpt>
      <trkpt lat="45.20521" lon="5.7275">
        <ele>562</ele>
        <time>2017-11-27T05:33:10Z</time>
      </trkpt>
      <trkpt lat="45.20524" lon="5.7275">
        <ele>563</ele>
        <time>2017-11-27T05:35:10Z</time>
      </trkpt>
      <trkpt lat="45.20526" lon="5.72748">
        <ele>576</ele>
        <time>2017-11-27T05:37:10Z</time>
      </trkpt>
      <trkpt lat="45.20524" lon="5.72739">
        <ele>577</ele>
        <time>2017-11-27T05:39:10Z</time>
      </trkpt>
      <trkpt lat="45.20512" lon="5.7273">
        <ele>575</ele>
        <time>2017-11-27T05:41:10Z</time>
      </trkpt>
      <trkpt lat="45.20454" lon="5.72676">
        <ele>564</ele>
        <time>2017-11-27T05:43:10Z</time>
      </trkpt>
      <trkpt lat="45.20444" lon="5.72672">
        <ele>563</ele>
        <time>2017-11-27T05:45:10Z</time>
      </trkpt>
      <trkpt lat="45.20444" lon="5.72671">
        <ele>563</ele>
        <time>2017-11-27T05:47:10Z</time>
      </trkpt>
      <trkpt lat="45.20435" lon="5.72664">
        <ele>581</ele>
        <time>2017-11-27T05:49:10Z</time>
      </trkpt>
      <trkpt lat="45.20417" lon="5.72634">
        <ele>588</ele>
        <time>2017-11-27T05:51:10Z</time>
      </trkpt>
      <trkpt lat="45.20416" lon="5.72626">
        <ele>571</ele>
        <time>2017-11-27T05:53:10Z</time>
      </trkpt>
      <trkpt lat="45.20422" lon="5.72625">
        <ele>591</ele>
        <time>2017-11-27T05:55:10Z</time>
      </trkpt>
      <trkpt lat="45.20435" lon="5.7264">
        <ele>588</ele>
        <time>2017-11-27T05:57:10Z</time>
      </trkpt>
      <trkpt lat="45.20444" lon="5.72647">
        <ele>588</ele>
        <time>2017-11-27T05:59:10Z</time>
      </trkpt>
      <trkpt lat="45.20461" lon="5.72648">
        <ele>592</ele>
        <time>2017-11-27T06:01:10Z</time>
      </trkpt>
      <trkpt lat="45.20511" lon="5.72672">
        <ele>591</ele>
        <time>2017-11-27T06:03:10Z</time>
      </trkpt>
      <trkpt lat="45.2051" lon="5.72672">
        <ele>591</ele>
        <time>2017-11-27T06:05:10Z</time>
      </trkpt>
      <trkpt lat="45.20523" lon="5.72678">
        <ele>592</ele>
        <time>2017-11-27T06:07:10Z</time>
      </trkpt>
      <trkpt lat="45.20572" lon="5.72712">
        <ele>596</ele>
        <time>2017-11-27T06:09:10Z</time>
      </trkpt>
      <trkpt lat="45.20579" lon="5.72713">
        <ele>596</ele>
        <time>2017-11-27T06:11:10Z</time>
      </trkpt>
      <trkpt lat="45.20583" lon="5.7271">
        <ele>597</ele>
        <time>2017-11-27T06:13:10Z</time>
      </trkpt>
      <trkpt lat="45.20584" lon="5.72706">
        <ele>620</ele>
        <time>2017-11-27T06:15:10Z</time>
      </trkpt>
      <trkpt lat="45.20581" lon="5.72702">
        <ele>599</ele>
        <time>2017-11-27T06:17:10Z</time>
      </trkpt>
      <trkpt lat="45.20573" lon="5.72701">
        <ele>599</ele>
        <time>2017-11-27T06:19:10Z</time>
      </trkpt>
      <trkpt lat="45.20559" lon="5.7269">
        <ele>599</ele>
        <time>2017-11-27T06:21:10Z</time>
      </trkpt>
      <trkpt lat="45.20538" lon="5.72664">
        <ele>613</ele>
        <time>2017-11-27T06:23:10Z</time>
      </trkpt>
      <trkpt lat="45.20526" lon="5.72643">
        <ele>612</ele>
        <time>2017-11-27T06:25:10Z</time>
      </trkpt>
      <trkpt lat="45.20513" lon="5.72628">
        <ele>614</ele>
        <time>2017-11-27T06:27:10Z</time>
      </trkpt>
      <trkpt lat="45.20495" lon="5.72623">
        <ele>599</ele>
        <time>2017-11-27T06:29:10Z</time>
      </trkpt>
      <trkpt lat="45.20477" lon="5.72607">
        <ele>601</ele>
        <time>2017-11-27T06:31:10Z</time>
      </trkpt>
      <trkpt lat="45.2045" lon="5.72554">
        <ele>617</ele>
        <time>2017-11-27T06:33:10Z</time>
      </trkpt>
      <trkpt lat="45.20447" lon="5.72543">
        <ele>617</ele>
        <time>2017-11-27T06:35:10Z</time>
      </trkpt>
      <trkpt lat="45.20446" lon="5.72543">
        <ele>617</ele>
        <time>2017-11-27T06:37:10Z</time>
      </trkpt>
      <trkpt lat="45.20441" lon="5.72523">
        <ele>619</ele>
        <time>2017-11-27T06:39:10Z</time>
      </trkpt>
      <trkpt lat="45.20442" lon="5.72518">
        <ele>619</ele>
        <time>2017-11-27T06:41:10Z</time>
      </trkpt>
      <trkpt lat="45.20445" lon="5.72515">
        <ele>620</ele>
        <time>2017-11-27T06:43:10Z</time>
      </trkpt>
      <trkpt lat="45.20449" lon="5.72516">
        <ele>620</ele>
        <time>2017-11-27T06:45:10Z</time>
      </trkpt>
      <trkpt lat="45.20475" lon="5.72552">
        <ele>619</ele>
        <time>2017-11-27T06:47:10Z</time>
      </trkpt>
      <trkpt lat="45.20484" lon="5.72561">
        <ele>619</ele>
        <time>2017-11-27T06:49:10Z</time>
      </trkpt>
      <trkpt lat="45.20491" lon="5.72562">
        <ele>620</ele>
        <time>2017-11-27T06:51:10Z</time>
      </trkpt>
      <trkpt lat="45.20492" lon="5.72557">
        <ele>620</ele>
        <time>2017-11-27T06:53:10Z</time>
      </trkpt>
      <trkpt lat="45.20486" lon="5.72531">
        <ele>623</ele>
        <time>2017-11-27T06:55:10Z</time>
      </trkpt>
      <trkpt lat="45.20486" lon="5.72502">
        <ele>628</ele>
        <time>2017-11-27T06:57:10Z</time>
      </trkpt>
      <trkpt lat="45.20472" lon="5.72437">
        <ele>630</ele>
        <time>2017-11-27T06:59:10Z</time>
      </trkpt>
      <trkpt lat="45.20458" lon="5.72412">
        <ele>622</ele>
        <time>2017-11-27T07:01:10Z</time>
      </trkpt>
      <trkpt lat="45.20434" lon="5.72396">
        <ele>619</ele>
        <time>2017-11-27T07:03:10Z</time>
      </trkpt>
      <trkpt lat="45.20415" lon="5.72387">
        <ele>604</ele>
        <time>2017-11-27T07:05:10Z</time>
      </trkpt>
      <trkpt lat="45.20392" lon="5.72387">
        <ele>599</ele>
        <time>2017-11-27T07:07:10Z</time>
      </trkpt>
      <trkpt lat="45.20379" lon="5.72395">
        <ele>598</ele>
        <time>2017-11-27T07:09:10Z</time>
      </trkpt>
      <trkpt lat="45.20369" lon="5.72408">
        <ele>597</ele>
        <time>2017-11-27T07:11:10Z</time>
      </trkpt>
      <trkpt lat="45.20379" lon="5.72395">
        <ele>598</ele>
        <time>2017-11-27T07:13:10Z</time>
      </trkpt>
      <trkpt lat="45.20392" lon="5.72387">
        <ele>599</ele>
        <time>2017-11-27T07:15:10Z</time>
      </trkpt>
      <trkpt lat="45.20415" lon="5.72387">
        <ele>604</ele>
        <time>2017-11-27T07:17:10Z</time>
      </trkpt>
      <trkpt lat="45.20434" lon="5.72396">
        <ele>619</ele>
        <time>2017-11-27T07:19:10Z</time>
      </trkpt>
      <trkpt lat="45.2046" lon="5.72394">
        <ele>620</ele>
        <time>2017-11-27T07:21:10Z</time>
      </trkpt>
      <trkpt lat="45.20527" lon="5.72408">
        <ele>630</ele>
        <time>2017-11-27T07:23:10Z</time>
      </trkpt>
      <trkpt lat="45.20543" lon="5.72408">
        <ele>630</ele>
        <time>2017-11-27T07:25:10Z</time>
      </trkpt>
      <trkpt lat="45.20575" lon="5.72418">
        <ele>637</ele>
        <time>2017-11-27T07:27:10Z</time>
      </trkpt>
      <trkpt lat="45.20574" lon="5.72418">
        <ele>637</ele>
        <time>2017-11-27T07:29:10Z</time>
      </trkpt>
      <trkpt lat="45.20579" lon="5.7242">
        <ele>637</ele>
        <time>2017-11-27T07:31:10Z</time>
      </trkpt>
      <trkpt lat="45.20602" lon="5.72421">
        <ele>637</ele>
        <time>2017-11-27T07:33:10Z</time>
      </trkpt>
      <trkpt lat="45.20624" lon="5.72416">
        <ele>629</ele>
        <time>2017-11-27T07:35:10Z</time>
      </trkpt>
      <trkpt lat="45.20647" lon="5.72406">
        <ele>629</ele>
        <time>2017-11-27T07:37:10Z</time>
      </trkpt>
      <trkpt lat="45.20663" lon="5.72402">
        <ele>629</ele>
        <time>2017-11-27T07:39:10Z</time>
      </trkpt>
      <trkpt lat="45.20686" lon="5.72404">
        <ele>620</ele>
        <time>2017-11-27T07:41:10Z</time>
      </trkpt>
      <trkpt lat="45.20691" lon="5.72405">
        <ele>619</ele>
        <time>2017-11-27T07:43:10Z</time>
      </trkpt>
      <trkpt lat="45.2069" lon="5.72405">
        <ele>620</ele>
        <time>2017-11-27T07:45:10Z</time>
      </trkpt>
      <trkpt lat="45.20782" lon="5.72436">
        <ele>630</ele>
        <time>2017-11-27T07:47:10Z</time>
      </trkpt>
      <trkpt lat="45.20836" lon="5.72447">
        <ele>621</ele>
        <time>2017-11-27T07:49:10Z</time>
      </trkpt>
      <trkpt lat="45.20869" lon="5.72458">
        <ele>627</ele>
        <time>2017-11-27T07:51:10Z</time>
      </trkpt>
      <trkpt lat="45.20909" lon="5.72468">
        <ele>632</ele>
        <time>2017-11-27T07:53:10Z</time>
      </trkpt>
      <trkpt lat="45.20939" lon="5.72488">
        <ele>634</ele>
        <time>2017-11-27T07:55:10Z</time>
      </trkpt>
      <trkpt lat="45.20981" lon="5.72488">
        <ele>629</ele>
        <time>2017-11-27T07:57:10Z</time>
      </trkpt>
      <trkpt lat="45.2098" lon="5.72488">
        <ele>629</ele>
        <time>2017-11-27T07:59:10Z</time>
      </trkpt>
      <trkpt lat="45.21002" lon="5.72489">
        <ele>629</ele>
        <time>2017-11-27T08:01:10Z</time>
      </trkpt>
      <trkpt lat="45.21067" lon="5.72476">
        <ele>619</ele>
        <time>2017-11-27T08:03:10Z</time>
      </trkpt>
      <trkpt lat="45.21162" lon="5.72446">
        <ele>615</ele>
        <time>2017-11-27T08:05:10Z</time>
      </trkpt>
      <trkpt lat="45.21178" lon="5.72434">
        <ele>620</ele>
        <time>2017-11-27T08:07:10Z</time>
      </trkpt>
      <trkpt lat="45.21191" lon="5.72418">
        <ele>621</ele>
        <time>2017-11-27T08:09:10Z</time>
      </trkpt>
      <trkpt lat="45.21201" lon="5.72395">
        <ele>604</ele>
        <time>2017-11-27T08:11:10Z</time>
      </trkpt>
      <trkpt lat="45.21201" lon="5.72365">
        <ele>600</ele>
        <time>2017-11-27T08:13:10Z</time>
      </trkpt>
      <trkpt lat="45.21194" lon="5.72327">
        <ele>580</ele>
        <time>2017-11-27T08:15:10Z</time>
      </trkpt>
      <trkpt lat="45.21209" lon="5.72346">
        <ele>598</ele>
        <time>2017-11-27T08:17:10Z</time>
      </trkpt>
      <trkpt lat="45.21243" lon="5.7241">
        <ele>620</ele>
        <time>2017-11-27T08:19:10Z</time>
      </trkpt>
      <trkpt lat="45.21265" lon="5.72434">
        <ele>643</ele>
        <time>2017-11-27T08:21:10Z</time>
      </trkpt>
      <trkpt lat="45.21267" lon="5.72441">
        <ele>645</ele>
        <time>2017-11-27T08:23:10Z</time>
      </trkpt>
      <trkpt lat="45.21336" lon="5.72508">
        <ele>687</ele>
        <time>2017-11-27T08:25:10Z</time>
      </trkpt>
      <trkpt lat="45.21377" lon="5.72513">
        <ele>692</ele>
        <time>2017-11-27T08:27:10Z</time>
      </trkpt>
      <trkpt lat="45.21391" lon="5.72517">
        <ele>691</ele>
        <time>2017-11-27T08:29:10Z</time>
      </trkpt>
      <trkpt lat="45.21437" lon="5.72544">
        <ele>686</ele>
        <time>2017-11-27T08:31:10Z</time>
      </trkpt>
      <trkpt lat="45.21451" lon="5.72554">
        <ele>687</ele>
        <time>2017-11-27T08:33:10Z</time>
      </trkpt>
      <trkpt lat="45.21469" lon="5.72563">
        <ele>686</ele>
        <time>2017-11-27T08:35:10Z</time>
      </trkpt>
      <trkpt lat="45.21494" lon="5.72583">
        <ele>689</ele>
        <time>2017-11-27T08:37:10Z</time>
      </trkpt>
      <trkpt lat="45.21504" lon="5.72593">
        <ele>692</ele>
        <time>2017-11-27T08:39:10Z</time>
      </trkpt>
      <trkpt lat="45.21536" lon="5.72595">
        <ele>690</ele>
        <time>2017-11-27T08:41:10Z</time>
      </trkpt>
      <trkpt lat="45.2157" lon="5.72585">
        <ele>682</ele>
        <time>2017-11-27T08:43:10Z</time>
      </trkpt>
      <trkpt lat="45.21587" lon="5.72587">
        <ele>675</ele>
        <time>2017-11-27T08:45:10Z</time>
      </trkpt>
      <trkpt lat="45.21637" lon="5.726">
        <ele>673</ele>
        <time>2017-11-27T08:47:10Z</time>
      </trkpt>
      <trkpt lat="45.21703" lon="5.72598">
        <ele>661</ele>
        <time>2017-11-27T08:49:10Z</time>
      </trkpt>
      <trkpt lat="45.21748" lon="5.72592">
        <ele>649</ele>
        <time>2017-11-27T08:51:10Z</time>
      </trkpt>
      <trkpt lat="45.21782" lon="5.72582">
        <ele>623</ele>
        <time>2017-11-27T08:53:10Z</time>
      </trkpt>
      <trkpt lat="45.21806" lon="5.72578">
        <ele>621</ele>
        <time>2017-11-27T08:55:10Z</time>
      </trkpt>
      <trkpt lat="45.2182" lon="5.72579">
        <ele>623</ele>
        <time>2017-11-27T08:57:10Z</time>
      </trkpt>
      <trkpt lat="45.21819" lon="5.72579">
        <ele>622</ele>
        <time>2017-11-27T08:59:10Z</time>
      </trkpt>
      <trkpt lat="45.21825" lon="5.7258">
        <ele>624</ele>
        <time>2017-11-27T09:01:10Z</time>
      </trkpt>
      <trkpt lat="45.21841" lon="5.72592">
        <ele>636</ele>
        <time>2017-11-27T09:03:10Z</time>
      </trkpt>
      <trkpt lat="45.21853" lon="5.72591">
        <ele>639</ele>
        <time>2017-11-27T09:05:10Z</time>
      </trkpt>
      <trkpt lat="45.21846" lon="5.72628">
        <ele>648</ele>
        <time>2017-11-27T09:07:10Z</time>
      </trkpt>
      <trkpt lat="45.21845" lon="5.72648">
        <ele>654</ele>
        <time>2017-11-27T09:09:10Z</time>
      </trkpt>
      <trkpt lat="45.21847" lon="5.72651">
        <ele>654</ele>
        <time>2017-11-27T09:11:10Z</time>
      </trkpt>
      <trkpt lat="45.21852" lon="5.72652">
        <ele>654</ele>
        <time>2017-11-27T09:13:10Z</time>
      </trkpt>
      <trkpt lat="45.21864" lon="5.72647">
        <ele>652</ele>
        <time>2017-11-27T09:15:10Z</time>
      </trkpt>
      <trkpt lat="45.2188" lon="5.72632">
        <ele>649</ele>
        <time>2017-11-27T09:17:10Z</time>
      </trkpt>
      <trkpt lat="45.21889" lon="5.72631">
        <ele>650</ele>
        <time>2017-11-27T09:19:10Z</time>
      </trkpt>
      <trkpt lat="45.21905" lon="5.72643">
        <ele>654</ele>
        <time>2017-11-27T09:21:10Z</time>
      </trkpt>
      <trkpt lat="45.21932" lon="5.72678">
        <ele>675</ele>
        <time>2017-11-27T09:23:10Z</time>
      </trkpt>
      <trkpt lat="45.22002" lon="5.72712">
        <ele>673</ele>
        <time>2017-11-27T09:25:10Z</time>
      </trkpt>
      <trkpt lat="45.22028" lon="5.72748">
        <ele>676</ele>
        <time>2017-11-27T09:27:10Z</time>
      </trkpt>
      <trkpt lat="45.22089" lon="5.72768">
        <ele>680</ele>
        <time>2017-11-27T09:29:10Z</time>
      </trkpt>
      <trkpt lat="45.22121" lon="5.72775">
        <ele>682</ele>
        <time>2017-11-27T09:31:10Z</time>
      </trkpt>
      <trkpt lat="45.22159" lon="5.72766">
        <ele>676</ele>
        <time>2017-11-27T09:33:10Z</time>
      </trkpt>
      <trkpt lat="45.22188" lon="5.72734">
        <ele>657</ele>
        <time>2017-11-27T09:35:10Z</time>
      </trkpt>
      <trkpt lat="45.2221" lon="5.72719">
        <ele>653</ele>
        <time>2017-11-27T09:37:10Z</time>
      </trkpt>
      <trkpt lat="45.22257" lon="5.72737">
        <ele>661</ele>
        <time>2017-11-27T09:39:10Z</time>
      </trkpt>
      <trkpt lat="45.22311" lon="5.72751">
        <ele>676</ele>
        <time>2017-11-27T09:41:10Z</time>
      </trkpt>
      <trkpt lat="45.22439" lon="5.72742">
        <ele>642</ele>
        <time>2017-11-27T09:43:10Z</time>
      </trkpt>
      <trkpt lat="45.22442" lon="5.72743">
        <ele>642</ele>
        <time>2017-11-27T09:45:10Z</time>
      </trkpt>
      <trkpt lat="45.22442" lon="5.72742">
        <ele>642</ele>
        <time>2017-11-27T09:47:10Z</time>
      </trkpt>
      <trkpt lat="45.22487" lon="5.72756">
        <ele>658</ele>
        <time>2017-11-27T09:49:10Z</time>
      </trkpt>
      <trkpt lat="45.22503" lon="5.72754">
        <ele>652</ele>
        <time>2017-11-27T09:51:10Z</time>
      </trkpt>
      <trkpt lat="45.22515" lon="5.72746">
        <ele>640</ele>
        <time>2017-11-27T09:53:10Z</time>
      </trkpt>
      <trkpt lat="45.22509" lon="5.72765">
        <ele>656</ele>
        <time>2017-11-27T09:55:10Z</time>
      </trkpt>
      <trkpt lat="45.225" lon="5.72854">
        <ele>684</ele>
        <time>2017-11-27T09:57:10Z</time>
      </trkpt>
      <trkpt lat="45.22503" lon="5.72879">
        <ele>690</ele>
        <time>2017-11-27T09:59:10Z</time>
      </trkpt>
      <trkpt lat="45.22513" lon="5.72892">
        <ele>692</ele>
        <time>2017-11-27T10:01:10Z</time>
      </trkpt>
      <trkpt lat="45.22553" lon="5.72887">
        <ele>692</ele>
        <time>2017-11-27T10:03:10Z</time>
      </trkpt>
      <trkpt lat="45.22572" lon="5.72892">
        <ele>694</ele>
        <time>2017-11-27T10:05:10Z</time>
      </trkpt>
      <trkpt lat="45.22588" lon="5.72905">
        <ele>696</ele>
        <time>2017-11-27T10:07:10Z</time>
      </trkpt>
      <trkpt lat="45.22599" lon="5.72926">
        <ele>707</ele>
        <time>2017-11-27T10:09:10Z</time>
      </trkpt>
      <trkpt lat="45.22626" lon="5.72956">
        <ele>709</ele>
        <time>2017-11-27T10:11:10Z</time>
      </trkpt>
      <trkpt lat="45.22666" lon="5.72988">
        <ele>714</ele>
        <time>2017-11-27T10:13:10Z</time>
      </trkpt>
      <trkpt lat="45.22686" lon="5.72992">
        <ele>705</ele>
        <time>2017-11-27T10:15:10Z</time>
      </trkpt>
      <trkpt lat="45.22714" lon="5.73005">
        <ele>717</ele>
        <time>2017-11-27T10:17:10Z</time>
      </trkpt>
      <trkpt lat="45.22802" lon="5.73054">
        <ele>703</ele>
        <time>2017-11-27T10:19:10Z</time>
      </trkpt>
      <trkpt lat="45.2285" lon="5.73085">
        <ele>707</ele>
        <time>2017-11-27T10:21:10Z</time>
      </trkpt>
      <trkpt lat="45.2287" lon="5.73095">
        <ele>707</ele>
        <time>2017-11-27T10:23:10Z</time>
      </trkpt>
      <trkpt lat="45.22869" lon="5.73095">
        <ele>707</ele>
        <time>2017-11-27T10:25:10Z</time>
      </trkpt>
      <trkpt lat="45.22906" lon="5.73114">
        <ele>705</ele>
        <time>2017-11-27T10:27:10Z</time>
      </trkpt>
      <trkpt lat="45.22972" lon="5.73126">
        <ele>700</ele>
        <time>2017-11-27T10:29:10Z</time>
      </trkpt>
      <trkpt lat="45.22981" lon="5.7314">
        <ele>703</ele>
        <time>2017-11-27T10:31:10Z</time>
      </trkpt>
      <trkpt lat="45.2299" lon="5.73149">
        <ele>706</ele>
        <time>2017-11-27T10:33:10Z</time>
      </trkpt>
      <trkpt lat="45.23011" lon="5.73149">
        <ele>706</ele>
        <time>2017-11-27T10:35:10Z</time>
      </trkpt>
      <trkpt lat="45.23031" lon="5.73157">
        <ele>706</ele>
        <time>2017-11-27T10:37:10Z</time>
      </trkpt>
      <trkpt lat="45.23047" lon="5.73165">
        <ele>707</ele>
        <time>2017-11-27T10:39:10Z</time>
      </trkpt>
      <trkpt lat="45.23068" lon="5.73183">
        <ele>724</ele>
        <time>2017-11-27T10:41:10Z</time>
      </trkpt>
      <trkpt lat="45.23083" lon="5.73188">
        <ele>724</ele>
        <time>2017-11-27T10:43:10Z</time>
      </trkpt>
      <trkpt lat="45.23107" lon="5.73186">
        <ele>726</ele>
        <time>2017-11-27T10:45:10Z</time>
      </trkpt>
      <trkpt lat="45.23134" lon="5.73192">
        <ele>727</ele>
        <time>2017-11-27T10:47:10Z</time>
      </trkpt>
      <trkpt lat="45.2322" lon="5.73237">
        <ele>735</ele>
        <time>2017-11-27T10:49:10Z</time>
      </trkpt>
      <trkpt lat="45.23219" lon="5.73237">
        <ele>735</ele>
        <time>2017-11-27T10:51:10Z</time>
      </trkpt>
      <trkpt lat="45.23239" lon="5.73247">
        <ele>740</ele>
        <time>2017-11-27T10:53:10Z</time>
      </trkpt>
      <trkpt lat="45.23255" lon="5.73258">
        <ele>747</ele>
        <time>2017-11-27T10:55:10Z</time>
      </trkpt>
      <trkpt lat="45.23261" lon="5.73264">
        <ele>749</ele>
        <time>2017-11-27T10:57:10Z</time>
      </trkpt>
      <trkpt lat="45.23262" lon="5.73288">
        <ele>753</ele>
        <time>2017-11-27T10:59:10Z</time>
      </trkpt>
      <trkpt lat="45.23273" lon="5.73272">
        <ele>750</ele>
        <time>2017-11-27T11:01:10Z</time>
      </trkpt>
      <trkpt lat="45.23282" lon="5.73266">
        <ele>749</ele>
        <time>2017-11-27T11:03:10Z</time>
      </trkpt>
      <trkpt lat="45.23296" lon="5.73267">
        <ele>749</ele>
        <time>2017-11-27T11:05:10Z</time>
      </trkpt>
      <trkpt lat="45.23315" lon="5.73272">
        <ele>747</ele>
        <time>2017-11-27T11:07:10Z</time>
      </trkpt>
      <trkpt lat="45.23336" lon="5.73289">
        <ele>743</ele>
        <time>2017-11-27T11:09:10Z</time>
      </trkpt>
      <trkpt lat="45.2336" lon="5.73302">
        <ele>744</ele>
        <time>2017-11-27T11:11:10Z</time>
      </trkpt>
      <trkpt lat="45.23387" lon="5.73304">
        <ele>742</ele>
        <time>2017-11-27T11:13:10Z</time>
      </trkpt>
      <trkpt lat="45.23418" lon="5.73303">
        <ele>737</ele>
        <time>2017-11-27T11:15:10Z</time>
      </trkpt>
      <trkpt lat="45.23434" lon="5.73298">
        <ele>737</ele>
        <time>2017-11-27T11:17:10Z</time>
      </trkpt>
      <trkpt lat="45.23442" lon="5.73287">
        <ele>736</ele>
        <time>2017-11-27T11:19:10Z</time>
      </trkpt>
      <trkpt lat="45.23453" lon="5.73262">
        <ele>734</ele>
        <time>2017-11-27T11:21:10Z</time>
      </trkpt>
      <trkpt lat="45.23477" lon="5.732">
        <ele>717</ele>
        <time>2017-11-27T11:23:10Z</time>
      </trkpt>
      <trkpt lat="45.23502" lon="5.73162">
        <ele>708</ele>
        <time>2017-11-27T11:25:10Z</time>
      </trkpt>
      <trkpt lat="45.23535" lon="5.73124">
        <ele>699</ele>
        <time>2017-11-27T11:27:10Z</time>
      </trkpt>
      <trkpt lat="45.23553" lon="5.73095">
        <ele>696</ele>
        <time>2017-11-27T11:29:10Z</time>
      </trkpt>
      <trkpt lat="45.23561" lon="5.73085">
        <ele>695</ele>
        <time>2017-11-27T11:31:10Z</time>
      </trkpt>
      <trkpt lat="45.23571" lon="5.73077">
        <ele>688</ele>
        <time>2017-11-27T11:33:10Z</time>
      </trkpt>
      <trkpt lat="45.23575" lon="5.73065">
        <ele>687</ele>
        <time>2017-11-27T11:35:10Z</time>
      </trkpt>
      <trkpt lat="45.23596" lon="5.73088">
        <ele>690</ele>
        <time>2017-11-27T11:37:10Z</time>
      </trkpt>
      <trkpt lat="45.23625" lon="5.73138">
        <ele>691</ele>
        <time>2017-11-27T11:39:10Z</time>
      </trkpt>
      <trkpt lat="45.23634" lon="5.73163">
        <ele>692</ele>
        <time>2017-11-27T11:41:10Z</time>
      </trkpt>
      <trkpt lat="45.23637" lon="5.73168">
        <ele>703</ele>
        <time>2017-11-27T11:43:10Z</time>
      </trkpt>
      <trkpt lat="45.23637" lon="5.73167">
        <ele>703</ele>
        <time>2017-11-27T11:45:10Z</time>
      </trkpt>
      <trkpt lat="45.23646" lon="5.7318">
        <ele>703</ele>
        <time>2017-11-27T11:47:10Z</time>
      </trkpt>
      <trkpt lat="45.23659" lon="5.73189">
        <ele>703</ele>
        <time>2017-11-27T11:49:10Z</time>
      </trkpt>
      <trkpt lat="45.23719" lon="5.73196">
        <ele>709</ele>
        <time>2017-11-27T11:51:10Z</time>
      </trkpt>
      <trkpt lat="45.23737" lon="5.73216">
        <ele>714</ele>
        <time>2017-11-27T11:53:10Z</time>
      </trkpt>
      <trkpt lat="45.23794" lon="5.73245">
        <ele>722</ele>
        <time>2017-11-27T11:55:10Z</time>
      </trkpt>
      <trkpt lat="45.23793" lon="5.73245">
        <ele>722</ele>
        <time>2017-11-27T11:57:10Z</time>
      </trkpt>
      <trkpt lat="45.23817" lon="5.73257">
        <ele>732</ele>
        <time>2017-11-27T11:59:10Z</time>
      </trkpt>
      <trkpt lat="45.23825" lon="5.73255">
        <ele>731</ele>
        <time>2017-11-27T12:01:10Z</time>
      </trkpt>
      <trkpt lat="45.23841" lon="5.73279">
        <ele>726</ele>
        <time>2017-11-27T12:03:10Z</time>
      </trkpt>
      <trkpt lat="45.2385" lon="5.73306">
        <ele>728</ele>
        <time>2017-11-27T12:05:10Z</time>
      </trkpt>
      <trkpt lat="45.23863" lon="5.73355">
        <ele>734</ele>
        <time>2017-11-27T12:07:10Z</time>
      </trkpt>
      <trkpt lat="45.23863" lon="5.73363">
        <ele>734</ele>
        <time>2017-11-27T12:09:10Z</time>
      </trkpt>
      <trkpt lat="45.23873" lon="5.73394">
        <ele>734</ele>
        <time>2017-11-27T12:11:10Z</time>
      </trkpt>
      <trkpt lat="45.2388" lon="5.73425">
        <ele>740</ele>
        <time>2017-11-27T12:13:10Z</time>
      </trkpt>
      <trkpt lat="45.23881" lon="5.73449">
        <ele>741</ele>
        <time>2017-11-27T12:15:10Z</time>
      </trkpt>
      <trkpt lat="45.23879" lon="5.73467">
        <ele>742</ele>
        <time>2017-11-27T12:17:10Z</time>
      </trkpt>
      <trkpt lat="45.23874" lon="5.73483">
        <ele>744</ele>
        <time>2017-11-27T12:19:10Z</time>
      </trkpt>
      <trkpt lat="45.23873" lon="5.73493">
        <ele>745</ele>
        <time>2017-11-27T12:21:10Z</time>
      </trkpt>
      <trkpt lat="45.23876" lon="5.73512">
        <ele>758</ele>
        <time>2017-11-27T12:23:10Z</time>
      </trkpt>
      <trkpt lat="45.23893" lon="5.73554">
        <ele>762</ele>
        <time>2017-11-27T12:25:10Z</time>
      </trkpt>
      <trkpt lat="45.23908" lon="5.73583">
        <ele>765</ele>
        <time>2017-11-27T12:27:10Z</time>
      </trkpt>
      <trkpt lat="45.23919" lon="5.73611">
        <ele>771</ele>
        <time>2017-11-27T12:29:10Z</time>
      </trkpt>
      <trkpt lat="45.23919" lon="5.7361">
        <ele>770</ele>
        <time>2017-11-27T12:31:10Z</time>
      </trkpt>
      <trkpt lat="45.23926" lon="5.73629">
        <ele>774</ele>
        <time>2017-11-27T12:33:10Z</time>
      </trkpt>
      <trkpt lat="45.23936" lon="5.7372">
        <ele>792</ele>
        <time>2017-11-27T12:35:10Z</time>
      </trkpt>
      <trkpt lat="45.23947" lon="5.73735">
        <ele>793</ele>
        <time>2017-11-27T12:37:10Z</time>
      </trkpt>
      <trkpt lat="45.23961" lon="5.73738">
        <ele>792</ele>
        <time>2017-11-27T12:39:10Z</time>
      </trkpt>
      <trkpt lat="45.23992" lon="5.7372">
        <ele>789</ele>
        <time>2017-11-27T12:41:10Z</time>
      </trkpt>
      <trkpt lat="45.24" lon="5.73721">
        <ele>780</ele>
        <time>2017-11-27T12:43:10Z</time>
      </trkpt>
      <trkpt lat="45.24002" lon="5.73729">
        <ele>782</ele>
        <time>2017-11-27T12:45:10Z</time>
      </trkpt>
      <trkpt lat="45.24001" lon="5.73736">
        <ele>784</ele>
        <time>2017-11-27T12:47:10Z</time>
      </trkpt>
      <trkpt lat="45.23994" lon="5.73741">
        <ele>791</ele>
        <time>2017-11-27T12:49:10Z</time>
      </trkpt>
      <trkpt lat="45.23987" lon="5.73773">
        <ele>803</ele>
        <time>2017-11-27T12:51:10Z</time>
      </trkpt>
      <trkpt lat="45.23987" lon="5.73801">
        <ele>808</ele>
        <time>2017-11-27T12:53:10Z</time>
      </trkpt>
      <trkpt lat="45.23989" lon="5.73822">
        <ele>811</ele>
        <time>2017-11-27T12:55:10Z</time>
      </trkpt>
      <trkpt lat="45.23994" lon="5.73834">
        <ele>818</ele>
        <time>2017-11-27T12:57:10Z</time>
      </trkpt>
      <trkpt lat="45.24007" lon="5.73843">
        <ele>816</ele>
        <time>2017-11-27T12:59:10Z</time>
      </trkpt>
      <trkpt lat="45.24013" lon="5.7385">
        <ele>817</ele>
        <time>2017-11-27T13:01:10Z</time>
      </trkpt>
      <trkpt lat="45.24013" lon="5.73849">
        <ele>817</ele>
        <time>2017-11-27T13:03:10Z</time>
      </trkpt>
      <trkpt lat="45.2402" lon="5.73857">
        <ele>818</ele>
        <time>2017-11-27T13:05:10Z</time>
      </trkpt>
      <trkpt lat="45.24026" lon="5.73869">
        <ele>820</ele>
        <time>2017-11-27T13:07:10Z</time>
      </trkpt>
      <trkpt lat="45.24024" lon="5.73885">
        <ele>822</ele>
        <time>2017-11-27T13:09:10Z</time>
      </trkpt>
      <trkpt lat="45.24011" lon="5.7392">
        <ele>840</ele>
        <time>2017-11-27T13:11:10Z</time>
      </trkpt>
      <trkpt lat="45.24011" lon="5.7393">
        <ele>841</ele>
        <time>2017-11-27T13:13:10Z</time>
      </trkpt>
      <trkpt lat="45.24013" lon="5.73933">
        <ele>842</ele>
        <time>2017-11-27T13:15:10Z</time>
      </trkpt>
      <trkpt lat="45.24021" lon="5.73934">
        <ele>843</ele>
        <time>2017-11-27T13:17:10Z</time>
      </trkpt>
      <trkpt lat="45.24035" lon="5.73928">
        <ele>843</ele>
        <time>2017-11-27T13:19:10Z</time>
      </trkpt>
      <trkpt lat="45.24054" lon="5.73928">
        <ele>842</ele>
        <time>2017-11-27T13:21:10Z</time>
      </trkpt>
      <trkpt lat="45.24082" lon="5.73938">
        <ele>840</ele>
        <time>2017-11-27T13:23:10Z</time>
      </trkpt>
      <trkpt lat="45.24104" lon="5.7395">
        <ele>839</ele>
        <time>2017-11-27T13:25:10Z</time>
      </trkpt>
      <trkpt lat="45.2408" lon="5.73962">
        <ele>847</ele>
        <time>2017-11-27T13:27:10Z</time>
      </trkpt>
      <trkpt lat="45.24055" lon="5.7398">
        <ele>851</ele>
        <time>2017-11-27T13:29:10Z</time>
      </trkpt>
      <trkpt lat="45.24029" lon="5.74018">
        <ele>873</ele>
        <time>2017-11-27T13:31:10Z</time>
      </trkpt>
      <trkpt lat="45.23999" lon="5.74041">
        <ele>880</ele>
        <time>2017-11-27T13:33:10Z</time>
      </trkpt>
      <trkpt lat="45.23973" lon="5.74075">
        <ele>886</ele>
        <time>2017-11-27T13:35:10Z</time>
      </trkpt>
      <trkpt lat="45.23973" lon="5.74087">
        <ele>903</ele>
        <time>2017-11-27T13:37:10Z</time>
      </trkpt>
      <trkpt lat="45.23957" lon="5.74094">
        <ele>905</ele>
        <time>2017-11-27T13:39:10Z</time>
      </trkpt>
      <trkpt lat="45.23945" lon="5.74109">
        <ele>907</ele>
        <time>2017-11-27T13:41:10Z</time>
      </trkpt>
      <trkpt lat="45.23935" lon="5.74111">
        <ele>908</ele>
        <time>2017-11-27T13:43:10Z</time>
      </trkpt>
      <trkpt lat="45.2392" lon="5.741">
        <ele>905</ele>
        <time>2017-11-27T13:45:10Z</time>
      </trkpt>
      <trkpt lat="45.23915" lon="5.74082">
        <ele>900</ele>
        <time>2017-11-27T13:47:10Z</time>
      </trkpt>
      <trkpt lat="45.23903" lon="5.74077">
        <ele>898</ele>
        <time>2017-11-27T13:49:10Z</time>
      </trkpt>
      <trkpt lat="45.23885" lon="5.74081">
        <ele>899</ele>
        <time>2017-11-27T13:51:10Z</time>
      </trkpt>
      <trkpt lat="45.23855" lon="5.74105">
        <ele>916</ele>
        <time>2017-11-27T13:53:10Z</time>
      </trkpt>
      <trkpt lat="45.23848" lon="5.74107">
        <ele>917</ele>
        <time>2017-11-27T13:55:10Z</time>
      </trkpt>
      <trkpt lat="45.23834" lon="5.74098">
        <ele>916</ele>
        <time>2017-11-27T13:57:10Z</time>
      </trkpt>
      <trkpt lat="45.2383" lon="5.7408">
        <ele>916</ele>
        <time>2017-11-27T13:59:10Z</time>
      </trkpt>
      <trkpt lat="45.23823" lon="5.74075">
        <ele>917</ele>
        <time>2017-11-27T14:01:10Z</time>
      </trkpt>
      <trkpt lat="45.23814" lon="5.74074">
        <ele>918</ele>
        <time>2017-11-27T14:03:10Z</time>
      </trkpt>
      <trkpt lat="45.23805" lon="5.74074">
        <ele>919</ele>
        <time>2017-11-27T14:05:10Z</time>
      </trkpt>
      <trkpt lat="45.238" lon="5.74072">
        <ele>920</ele>
        <time>2017-11-27T14:07:10Z</time>
      </trkpt>
      <trkpt lat="45.23774" lon="5.74056">
        <ele>924</ele>
        <time>2017-11-27T14:09:10Z</time>
      </trkpt>
      <trkpt lat="45.23775" lon="5.74078">
        <ele>927</ele>
        <time>2017-11-27T14:11:10Z</time>
      </trkpt>
      <trkpt lat="45.23773" lon="5.74107">
        <ele>935</ele>
        <time>2017-11-27T14:13:10Z</time>
      </trkpt>
      <trkpt lat="45.23717" lon="5.74179">
        <ele>959</ele>
        <time>2017-11-27T14:15:10Z</time>
      </trkpt>
      <trkpt lat="45.23715" lon="5.74204">
        <ele>960</ele>
        <time>2017-11-27T14:17:10Z</time>
      </trkpt>
      <trkpt lat="45.23662" lon="5.74262">
        <ele>975</ele>
        <time>2017-11-27T14:19:10Z</time>
      </trkpt>
      <trkpt lat="45.23575" lon="5.74308">
        <ele>998</ele>
        <time>2017-11-27T14:21:10Z</time>
      </trkpt>
      <trkpt lat="45.23535" lon="5.7432">
        <ele>1001</ele>
        <time>2017-11-27T14:23:10Z</time>
      </trkpt>
      <trkpt lat="45.23503" lon="5.74318">
        <ele>1004</ele>
        <time>2017-11-27T14:25:10Z</time>
      </trkpt>
      <trkpt lat="45.23488" lon="5.74307">
        <ele>1010</ele>
        <time>2017-11-27T14:27:10Z</time>
      </trkpt>
      <trkpt lat="45.23473" lon="5.74305">
        <ele>1011</ele>
        <time>2017-11-27T14:29:10Z</time>
      </trkpt>
      <trkpt lat="45.23453" lon="5.74287">
        <ele>1013</ele>
        <time>2017-11-27T14:31:10Z</time>
      </trkpt>
      <trkpt lat="45.23437" lon="5.74278">
        <ele>1014</ele>
        <time>2017-11-27T14:33:10Z</time>
      </trkpt>
      <trkpt lat="45.23436" lon="5.74278">
        <ele>1015</ele>
        <time>2017-11-27T14:35:10Z</time>
      </trkpt>
      <trkpt lat="45.23392" lon="5.74255">
        <ele>1020</ele>
        <time>2017-11-27T14:37:10Z</time>
      </trkpt>
      <trkpt lat="45.23322" lon="5.74205">
        <ele>1024</ele>
        <time>2017-11-27T14:39:10Z</time>
      </trkpt>
      <trkpt lat="45.23287" lon="5.7419">
        <ele>1023</ele>
        <time>2017-11-27T14:41:10Z</time>
      </trkpt>
      <trkpt lat="45.23265" lon="5.74161">
        <ele>1025</ele>
        <time>2017-11-27T14:43:10Z</time>
      </trkpt>
      <trkpt lat="45.23229" lon="5.74131">
        <ele>1024</ele>
        <time>2017-11-27T14:45:10Z</time>
      </trkpt>
      <trkpt lat="45.23219" lon="5.74106">
        <ele>1025</ele>
        <time>2017-11-27T14:47:10Z</time>
      </trkpt>
      <trkpt lat="45.23223" lon="5.74082">
        <ele>1025</ele>
        <time>2017-11-27T14:49:10Z</time>
      </trkpt>
      <trkpt lat="45.23227" lon="5.74041">
        <ele>1024</ele>
        <time>2017-11-27T14:51:10Z</time>
      </trkpt>
      <trkpt lat="45.2322" lon="5.74031">
        <ele>1023</ele>
        <time>2017-11-27T14:53:10Z</time>
      </trkpt>
      <trkpt lat="45.23207" lon="5.74019">
        <ele>1023</ele>
        <time>2017-11-27T14:55:10Z</time>
      </trkpt>
      <trkpt lat="45.23171" lon="5.74">
        <ele>1023</ele>
        <time>2017-11-27T14:57:10Z</time>
      </trkpt>
      <trkpt lat="45.23147" lon="5.73991">
        <ele>1020</ele>
        <time>2017-11-27T14:59:10Z</time>
      </trkpt>
      <trkpt lat="45.23125" lon="5.73985">
        <ele>1020</ele>
        <time>2017-11-27T15:01:10Z</time>
      </trkpt>
      <trkpt lat="45.23089" lon="5.73983">
        <ele>1021</ele>
        <time>2017-11-27T15:03:10Z</time>
      </trkpt>
      <trkpt lat="45.23077" lon="5.7397">
        <ele>1019</ele>
        <time>2017-11-27T15:05:10Z</time>
      </trkpt>
      <trkpt lat="45.23067" lon="5.73966">
        <ele>1018</ele>
        <time>2017-11-27T15:07:10Z</time>
      </trkpt>
      <trkpt lat="45.23052" lon="5.73969">
        <ele>1018</ele>
        <time>2017-11-27T15:09:10Z</time>
      </trkpt>
      <trkpt lat="45.23037" lon="5.73979">
        <ele>1017</ele>
        <time>2017-11-27T15:11:10Z</time>
      </trkpt>
      <trkpt lat="45.23025" lon="5.73979">
        <ele>1017</ele>
        <time>2017-11-27T15:13:10Z</time>
      </trkpt>
      <trkpt lat="45.23011" lon="5.73974">
        <ele>1016</ele>
        <time>2017-11-27T15:15:10Z</time>
      </trkpt>
      <trkpt lat="45.22979" lon="5.7397">
        <ele>1016</ele>
        <time>2017-11-27T15:17:10Z</time>
      </trkpt>
      <trkpt lat="45.22967" lon="5.73964">
        <ele>1016</ele>
        <time>2017-11-27T15:19:10Z</time>
      </trkpt>
      <trkpt lat="45.22954" lon="5.73946">
        <ele>1017</ele>
        <time>2017-11-27T15:21:10Z</time>
      </trkpt>
      <trkpt lat="45.22946" lon="5.73927">
        <ele>1018</ele>
        <time>2017-11-27T15:23:10Z</time>
      </trkpt>
      <trkpt lat="45.22944" lon="5.73913">
        <ele>1018</ele>
        <time>2017-11-27T15:25:10Z</time>
      </trkpt>
      <trkpt lat="45.22942" lon="5.73877">
        <ele>1016</ele>
        <time>2017-11-27T15:27:10Z</time>
      </trkpt>
      <trkpt lat="45.22938" lon="5.73872">
        <ele>1016</ele>
        <time>2017-11-27T15:29:10Z</time>
      </trkpt>
      <trkpt lat="45.22904" lon="5.73869">
        <ele>1020</ele>
        <time>2017-11-27T15:31:10Z</time>
      </trkpt>
      <trkpt lat="45.22886" lon="5.73873">
        <ele>1021</ele>
        <time>2017-11-27T15:33:10Z</time>
      </trkpt>
      <trkpt lat="45.22871" lon="5.7388">
        <ele>1020</ele>
        <time>2017-11-27T15:35:10Z</time>
      </trkpt>
      <trkpt lat="45.22861" lon="5.73881">
        <ele>1020</ele>
        <time>2017-11-27T15:37:10Z</time>
      </trkpt>
      <trkpt lat="45.22823" lon="5.73869">
        <ele>1020</ele>
        <time>2017-11-27T15:39:10Z</time>
      </trkpt>
      <trkpt lat="45.22783" lon="5.73852">
        <ele>1021</ele>
        <time>2017-11-27T15:41:10Z</time>
      </trkpt>
      <trkpt lat="45.22732" lon="5.73823">
        <ele>1023</ele>
        <time>2017-11-27T15:43:10Z</time>
      </trkpt>
      <trkpt lat="45.22712" lon="5.73816">
        <ele>1022</ele>
        <time>2017-11-27T15:45:10Z</time>
      </trkpt>
      <trkpt lat="45.22672" lon="5.73794">
        <ele>1022</ele>
        <time>2017-11-27T15:47:10Z</time>
      </trkpt>
      <trkpt lat="45.22643" lon="5.73768">
        <ele>1019</ele>
        <time>2017-11-27T15:49:10Z</time>
      </trkpt>
      <trkpt lat="45.22619" lon="5.73751">
        <ele>1018</ele>
        <time>2017-11-27T15:51:10Z</time>
      </trkpt>
      <trkpt lat="45.22597" lon="5.73732">
        <ele>1013</ele>
        <time>2017-11-27T15:53:10Z</time>
      </trkpt>
      <trkpt lat="45.22589" lon="5.73729">
        <ele>1013</ele>
        <time>2017-11-27T15:55:10Z</time>
      </trkpt>
      <trkpt lat="45.22577" lon="5.7372">
        <ele>1008</ele>
        <time>2017-11-27T15:57:10Z</time>
      </trkpt>
      <trkpt lat="45.22563" lon="5.73715">
        <ele>1006</ele>
        <time>2017-11-27T15:59:10Z</time>
      </trkpt>
      <trkpt lat="45.22546" lon="5.73704">
        <ele>1004</ele>
        <time>2017-11-27T16:01:10Z</time>
      </trkpt>
      <trkpt lat="45.22519" lon="5.73692">
        <ele>1001</ele>
        <time>2017-11-27T16:03:10Z</time>
      </trkpt>
      <trkpt lat="45.22498" lon="5.73689">
        <ele>995</ele>
        <time>2017-11-27T16:05:10Z</time>
      </trkpt>
      <trkpt lat="45.22492" lon="5.73693">
        <ele>995</ele>
        <time>2017-11-27T16:07:10Z</time>
      </trkpt>
      <trkpt lat="45.22474" lon="5.737">
        <ele>994</ele>
        <time>2017-11-27T16:09:10Z</time>
      </trkpt>
      <trkpt lat="45.22468" lon="5.73698">
        <ele>994</ele>
        <time>2017-11-27T16:11:10Z</time>
      </trkpt>
      <trkpt lat="45.22454" lon="5.737">
        <ele>993</ele>
        <time>2017-11-27T16:13:10Z</time>
      </trkpt>
      <trkpt lat="45.22424" lon="5.73699">
        <ele>992</ele>
        <time>2017-11-27T16:15:10Z</time>
      </trkpt>
      <trkpt lat="45.22374" lon="5.73687">
        <ele>989</ele>
        <time>2017-11-27T16:17:10Z</time>
      </trkpt>
      <trkpt lat="45.22358" lon="5.73676">
        <ele>989</ele>
        <time>2017-11-27T16:19:10Z</time>
      </trkpt>
      <trkpt lat="45.22329" lon="5.73666">
        <ele>987</ele>
        <time>2017-11-27T16:21:10Z</time>
      </trkpt>
      <trkpt lat="45.2225" lon="5.7365">
        <ele>996</ele>
        <time>2017-11-27T16:23:10Z</time>
      </trkpt>
      <trkpt lat="45.22238" lon="5.73643">
        <ele>996</ele>
        <time>2017-11-27T16:25:10Z</time>
      </trkpt>
      <trkpt lat="45.22218" lon="5.73626">
        <ele>997</ele>
        <time>2017-11-27T16:27:10Z</time>
      </trkpt>
      <trkpt lat="45.22184" lon="5.73587">
        <ele>1004</ele>
        <time>2017-11-27T16:29:10Z</time>
      </trkpt>
      <trkpt lat="45.22184" lon="5.73586">
        <ele>1004</ele>
        <time>2017-11-27T16:31:10Z</time>
      </trkpt>
      <trkpt lat="45.22148" lon="5.7355">
        <ele>1015</ele>
        <time>2017-11-27T16:33:10Z</time>
      </trkpt>
      <trkpt lat="45.22122" lon="5.73535">
        <ele>1017</ele>
        <time>2017-11-27T16:35:10Z</time>
      </trkpt>
      <trkpt lat="45.22116" lon="5.73525">
        <ele>1018</ele>
        <time>2017-11-27T16:37:10Z</time>
      </trkpt>
      <trkpt lat="45.22067" lon="5.7349">
        <ele>1029</ele>
        <time>2017-11-27T16:39:10Z</time>
      </trkpt>
      <trkpt lat="45.2202" lon="5.73451">
        <ele>1028</ele>
        <time>2017-11-27T16:41:10Z</time>
      </trkpt>
      <trkpt lat="45.22006" lon="5.73442">
        <ele>1029</ele>
        <time>2017-11-27T16:43:10Z</time>
      </trkpt>
      <trkpt lat="45.21983" lon="5.73437">
        <ele>1028</ele>
        <time>2017-11-27T16:45:10Z</time>
      </trkpt>
      <trkpt lat="45.2196" lon="5.73426">
        <ele>1029</ele>
        <time>2017-11-27T16:47:10Z</time>
      </trkpt>
      <trkpt lat="45.2194" lon="5.73427">
        <ele>1030</ele>
        <time>2017-11-27T16:49:10Z</time>
      </trkpt>
      <trkpt lat="45.21919" lon="5.73394">
        <ele>1028</ele>
        <time>2017-11-27T16:51:10Z</time>
      </trkpt>
      <trkpt lat="45.21905" lon="5.73382">
        <ele>1024</ele>
        <time>2017-11-27T16:53:10Z</time>
      </trkpt>
      <trkpt lat="45.21889" lon="5.73375">
        <ele>1023</ele>
        <time>2017-11-27T16:55:10Z</time>
      </trkpt>
      <trkpt lat="45.21862" lon="5.73355">
        <ele>1023</ele>
        <time>2017-11-27T16:57:10Z</time>
      </trkpt>
      <trkpt lat="45.21846" lon="5.73347">
        <ele>1024</ele>
        <time>2017-11-27T16:59:10Z</time>
      </trkpt>
      <trkpt lat="45.2182" lon="5.73312">
        <ele>1018</ele>
        <time>2017-11-27T17:01:10Z</time>
      </trkpt>
      <trkpt lat="45.21811" lon="5.73306">
        <ele>1016</ele>
        <time>2017-11-27T17:03:10Z</time>
      </trkpt>
      <trkpt lat="45.2181" lon="5.73306">
        <ele>1016</ele>
        <time>2017-11-27T17:05:10Z</time>
      </trkpt>
      <trkpt lat="45.21808" lon="5.73301">
        <ele>1015</ele>
        <time>2017-11-27T17:07:10Z</time>
      </trkpt>
      <trkpt lat="45.2178" lon="5.7327">
        <ele>1014</ele>
        <time>2017-11-27T17:09:10Z</time>
      </trkpt>
      <trkpt lat="45.2177" lon="5.73264">
        <ele>1015</ele>
        <time>2017-11-27T17:11:10Z</time>
      </trkpt>
      <trkpt lat="45.21733" lon="5.73206">
        <ele>1004</ele>
        <time>2017-11-27T17:13:10Z</time>
      </trkpt>
      <trkpt lat="45.21725" lon="5.73216">
        <ele>1004</ele>
        <time>2017-11-27T17:15:10Z</time>
      </trkpt>
      <trkpt lat="45.2172" lon="5.73217">
        <ele>1003</ele>
        <time>2017-11-27T17:17:10Z</time>
      </trkpt>
      <trkpt lat="45.21715" lon="5.73211">
        <ele>1002</ele>
        <time>2017-11-27T17:19:10Z</time>
      </trkpt>
      <trkpt lat="45.21708" lon="5.73206">
        <ele>1002</ele>
        <time>2017-11-27T17:21:10Z</time>
      </trkpt>
      <trkpt lat="45.21695" lon="5.73187">
        <ele>1001</ele>
        <time>2017-11-27T17:23:10Z</time>
      </trkpt>
      <trkpt lat="45.21679" lon="5.73155">
        <ele>999</ele>
        <time>2017-11-27T17:25:10Z</time>
      </trkpt>
      <trkpt lat="45.21667" lon="5.73141">
        <ele>997</ele>
        <time>2017-11-27T17:27:10Z</time>
      </trkpt>
      <trkpt lat="45.21647" lon="5.73132">
        <ele>985</ele>
        <time>2017-11-27T17:29:10Z</time>
      </trkpt>
      <trkpt lat="45.21627" lon="5.73131">
        <ele>982</ele>
        <time>2017-11-27T17:31:10Z</time>
      </trkpt>
      <trkpt lat="45.21589" lon="5.73112">
        <ele>978</ele>
        <time>2017-11-27T17:33:10Z</time>
      </trkpt>
      <trkpt lat="45.21582" lon="5.73125">
        <ele>961</ele>
        <time>2017-11-27T17:35:10Z</time>
      </trkpt>
      <trkpt lat="45.2158" lon="5.73139">
        <ele>961</ele>
        <time>2017-11-27T17:37:10Z</time>
      </trkpt>
      <trkpt lat="45.21575" lon="5.73146">
        <ele>961</ele>
        <time>2017-11-27T17:39:10Z</time>
      </trkpt>
      <trkpt lat="45.21575" lon="5.73156">
        <ele>962</ele>
        <time>2017-11-27T17:41:10Z</time>
      </trkpt>
      <trkpt lat="45.21571" lon="5.73157">
        <ele>961</ele>
        <time>2017-11-27T17:43:10Z</time>
      </trkpt>
      <trkpt lat="45.2157" lon="5.73178">
        <ele>948</ele>
        <time>2017-11-27T17:45:10Z</time>
      </trkpt>
      <trkpt lat="45.21609" lon="5.7323">
        <ele>964</ele>
        <time>2017-11-27T17:47:10Z</time>
      </trkpt>
      <trkpt lat="45.21609" lon="5.73229">
        <ele>964</ele>
        <time>2017-11-27T17:49:10Z</time>
      </trkpt>
      <trkpt lat="45.21614" lon="5.73236">
        <ele>964</ele>
        <time>2017-11-27T17:51:10Z</time>
      </trkpt>
      <trkpt lat="45.21642" lon="5.7329">
        <ele>948</ele>
        <time>2017-11-27T17:53:10Z</time>
      </trkpt>
      <trkpt lat="45.21656" lon="5.73345">
        <ele>934</ele>
        <time>2017-11-27T17:55:10Z</time>
      </trkpt>
      <trkpt lat="45.21666" lon="5.73378">
        <ele>923</ele>
        <time>2017-11-27T17:57:10Z</time>
      </trkpt>
      <trkpt lat="45.21674" lon="5.73415">
        <ele>934</ele>
        <time>2017-11-27T17:59:10Z</time>
      </trkpt>
      <trkpt lat="45.21672" lon="5.73462">
        <ele>920</ele>
        <time>2017-11-27T18:01:10Z</time>
      </trkpt>
      <trkpt lat="45.21675" lon="5.7348">
        <ele>912</ele>
        <time>2017-11-27T18:03:10Z</time>
      </trkpt>
      <trkpt lat="45.21674" lon="5.73486">
        <ele>908</ele>
        <time>2017-11-27T18:05:10Z</time>
      </trkpt>
      <trkpt lat="45.21667" lon="5.73468">
        <ele>917</ele>
        <time>2017-11-27T18:07:10Z</time>
      </trkpt>
      <trkpt lat="45.21667" lon="5.73467">
        <ele>917</ele>
        <time>2017-11-27T18:09:10Z</time>
      </trkpt>
      <trkpt lat="45.21657" lon="5.73427">
        <ele>909</ele>
        <time>2017-11-27T18:11:10Z</time>
      </trkpt>
      <trkpt lat="45.2164" lon="5.73397">
        <ele>917</ele>
        <time>2017-11-27T18:13:10Z</time>
      </trkpt>
      <trkpt lat="45.21615" lon="5.73378">
        <ele>912</ele>
        <time>2017-11-27T18:15:10Z</time>
      </trkpt>
      <trkpt lat="45.21605" lon="5.73367">
        <ele>911</ele>
        <time>2017-11-27T18:17:10Z</time>
      </trkpt>
      <trkpt lat="45.21587" lon="5.73342">
        <ele>907</ele>
        <time>2017-11-27T18:19:10Z</time>
      </trkpt>
      <trkpt lat="45.2157" lon="5.7333">
        <ele>898</ele>
        <time>2017-11-27T18:21:10Z</time>
      </trkpt>
      <trkpt lat="45.2154" lon="5.73319">
        <ele>886</ele>
        <time>2017-11-27T18:23:10Z</time>
      </trkpt>
      <trkpt lat="45.21531" lon="5.73319">
        <ele>881</ele>
        <time>2017-11-27T18:25:10Z</time>
      </trkpt>
      <trkpt lat="45.21521" lon="5.73315">
        <ele>876</ele>
        <time>2017-11-27T18:27:10Z</time>
      </trkpt>
      <trkpt lat="45.21514" lon="5.73304">
        <ele>878</ele>
        <time>2017-11-27T18:29:10Z</time>
      </trkpt>
      <trkpt lat="45.21511" lon="5.73293">
        <ele>883</ele>
        <time>2017-11-27T18:31:10Z</time>
      </trkpt>
      <trkpt lat="45.21508" lon="5.7328">
        <ele>887</ele>
        <time>2017-11-27T18:33:10Z</time>
      </trkpt>
      <trkpt lat="45.21509" lon="5.73263">
        <ele>889</ele>
        <time>2017-11-27T18:35:10Z</time>
      </trkpt>
      <trkpt lat="45.21494" lon="5.73241">
        <ele>882</ele>
        <time>2017-11-27T18:37:10Z</time>
      </trkpt>
      <trkpt lat="45.21475" lon="5.7322">
        <ele>874</ele>
        <time>2017-11-27T18:39:10Z</time>
      </trkpt>
      <trkpt lat="45.21475" lon="5.73196">
        <ele>879</ele>
        <time>2017-11-27T18:41:10Z</time>
      </trkpt>
      <trkpt lat="45.21471" lon="5.73182">
        <ele>882</ele>
        <time>2017-11-27T18:43:10Z</time>
      </trkpt>
      <trkpt lat="45.21455" lon="5.73164">
        <ele>898</ele>
        <time>2017-11-27T18:45:10Z</time>
      </trkpt>
      <trkpt lat="45.21454" lon="5.73164">
        <ele>897</ele>
        <time>2017-11-27T18:47:10Z</time>
      </trkpt>
      <trkpt lat="45.21416" lon="5.73141">
        <ele>853</ele>
        <time>2017-11-27T18:49:10Z</time>
      </trkpt>
      <trkpt lat="45.2141" lon="5.73128">
        <ele>855</ele>
        <time>2017-11-27T18:51:10Z</time>
      </trkpt>
      <trkpt lat="45.21395" lon="5.7311">
        <ele>857</ele>
        <time>2017-11-27T18:53:10Z</time>
      </trkpt>
      <trkpt lat="45.21341" lon="5.7303">
        <ele>864</ele>
        <time>2017-11-27T18:55:10Z</time>
      </trkpt>
      <trkpt lat="45.21305" lon="5.72984">
        <ele>833</ele>
        <time>2017-11-27T18:57:10Z</time>
      </trkpt>
      <trkpt lat="45.21283" lon="5.72963">
        <ele>826</ele>
        <time>2017-11-27T18:59:10Z</time>
      </trkpt>
      <trkpt lat="45.21276" lon="5.72952">
        <ele>824</ele>
        <time>2017-11-27T19:01:10Z</time>
      </trkpt>
      <trkpt lat="45.21266" lon="5.72951">
        <ele>822</ele>
        <time>2017-11-27T19:03:10Z</time>
      </trkpt>
      <trkpt lat="45.21252" lon="5.72937">
        <ele>818</ele>
        <time>2017-11-27T19:05:10Z</time>
      </trkpt>
      <trkpt lat="45.21243" lon="5.7293">
        <ele>803</ele>
        <time>2017-11-27T19:07:10Z</time>
      </trkpt>
      <trkpt lat="45.21231" lon="5.72922">
        <ele>802</ele>
        <time>2017-11-27T19:09:10Z</time>
      </trkpt>
      <trkpt lat="45.21222" lon="5.72919">
        <ele>800</ele>
        <time>2017-11-27T19:11:10Z</time>
      </trkpt>
      <trkpt lat="45.21207" lon="5.72909">
        <ele>801</ele>
        <time>2017-11-27T19:13:10Z</time>
      </trkpt>
      <trkpt lat="45.21198" lon="5.7291">
        <ele>800</ele>
        <time>2017-11-27T19:15:10Z</time>
      </trkpt>
      <trkpt lat="45.21198" lon="5.72906">
        <ele>800</ele>
        <time>2017-11-27T19:17:10Z</time>
      </trkpt>
      <trkpt lat="45.21188" lon="5.72904">
        <ele>799</ele>
        <time>2017-11-27T19:19:10Z</time>
      </trkpt>
      <trkpt lat="45.21181" lon="5.72906">
        <ele>798</ele>
        <time>2017-11-27T19:21:10Z</time>
      </trkpt>
      <trkpt lat="45.21121" lon="5.72878">
        <ele>787</ele>
        <time>2017-11-27T19:23:10Z</time>
      </trkpt>
      <trkpt lat="45.2108" lon="5.72838">
        <ele>783</ele>
        <time>2017-11-27T19:25:10Z</time>
      </trkpt>
      <trkpt lat="45.21073" lon="5.72821">
        <ele>781</ele>
        <time>2017-11-27T19:27:10Z</time>
      </trkpt>
      <trkpt lat="45.21073" lon="5.7282">
        <ele>781</ele>
        <time>2017-11-27T19:29:10Z</time>
      </trkpt>
      <trkpt lat="45.21052" lon="5.72751">
        <ele>776</ele>
        <time>2017-11-27T19:31:10Z</time>
      </trkpt>
      <trkpt lat="45.21031" lon="5.72741">
        <ele>763</ele>
        <time>2017-11-27T19:33:10Z</time>
      </trkpt>
      <trkpt lat="45.2101" lon="5.72743">
        <ele>761</ele>
        <time>2017-11-27T19:35:10Z</time>
      </trkpt>
      <trkpt lat="45.21002" lon="5.72747">
        <ele>760</ele>
        <time>2017-11-27T19:37:10Z</time>
      </trkpt>
      <trkpt lat="45.20984" lon="5.72747">
        <ele>751</ele>
        <time>2017-11-27T19:39:10Z</time>
      </trkpt>
      <trkpt lat="45.20966" lon="5.72718">
        <ele>743</ele>
        <time>2017-11-27T19:41:10Z</time>
      </trkpt>
      <trkpt lat="45.20946" lon="5.72706">
        <ele>739</ele>
        <time>2017-11-27T19:43:10Z</time>
      </trkpt>
      <trkpt lat="45.20938" lon="5.72693">
        <ele>737</ele>
        <time>2017-11-27T19:45:10Z</time>
      </trkpt>
      <trkpt lat="45.20921" lon="5.72675">
        <ele>730</ele>
        <time>2017-11-27T19:47:10Z</time>
      </trkpt>
      <trkpt lat="45.20868" lon="5.72688">
        <ele>719</ele>
        <time>2017-11-27T19:49:10Z</time>
      </trkpt>
      <trkpt lat="45.20838" lon="5.72692">
        <ele>716</ele>
        <time>2017-11-27T19:51:10Z</time>
      </trkpt>
      <trkpt lat="45.20832" lon="5.72661">
        <ele>702</ele>
        <time>2017-11-27T19:53:10Z</time>
      </trkpt>
      <trkpt lat="45.20827" lon="5.7266">
        <ele>700</ele>
        <time>2017-11-27T19:55:10Z</time>
      </trkpt>
      <trkpt lat="45.20814" lon="5.7267">
        <ele>700</ele>
        <time>2017-11-27T19:57:10Z</time>
      </trkpt>
      <trkpt lat="45.20808" lon="5.72668">
        <ele>699</ele>
        <time>2017-11-27T19:59:10Z</time>
      </trkpt>
      <trkpt lat="45.20805" lon="5.72641">
        <ele>689</ele>
        <time>2017-11-27T20:01:10Z</time>
      </trkpt>
      <trkpt lat="45.20797" lon="5.72624">
        <ele>685</ele>
        <time>2017-11-27T20:03:10Z</time>
      </trkpt>
      <trkpt lat="45.20785" lon="5.72607">
        <ele>682</ele>
        <time>2017-11-27T20:05:10Z</time>
      </trkpt>
      <trkpt lat="45.20749" lon="5.72589">
        <ele>664</ele>
        <time>2017-11-27T20:07:10Z</time>
      </trkpt>
      <trkpt lat="45.20723" lon="5.7258">
        <ele>656</ele>
        <time>2017-11-27T20:09:10Z</time>
      </trkpt>
      <trkpt lat="45.20717" lon="5.72582">
        <ele>655</ele>
        <time>2017-11-27T20:11:10Z</time>
      </trkpt>
      <trkpt lat="45.20703" lon="5.72572">
        <ele>653</ele>
        <time>2017-11-27T20:13:10Z</time>
      </trkpt>
      <trkpt lat="45.20695" lon="5.72569">
        <ele>652</ele>
        <time>2017-11-27T20:15:10Z</time>
      </trkpt>
      <trkpt lat="45.20679" lon="5.72574">
        <ele>650</ele>
        <time>2017-11-27T20:17:10Z</time>
      </trkpt>
      <trkpt lat="45.20667" lon="5.72588">
        <ele>650</ele>
        <time>2017-11-27T20:19:10Z</time>
      </trkpt>
      <trkpt lat="45.20649" lon="5.72602">
        <ele>643</ele>
        <time>2017-11-27T20:21:10Z</time>
      </trkpt>
      <trkpt lat="45.20639" lon="5.72604">
        <ele>642</ele>
        <time>2017-11-27T20:23:10Z</time>
      </trkpt>
      <trkpt lat="45.20639" lon="5.72619">
        <ele>641</ele>
        <time>2017-11-27T20:25:10Z</time>
      </trkpt>
      <trkpt lat="45.20632" lon="5.72648">
        <ele>641</ele>
        <time>2017-11-27T20:27:10Z</time>
      </trkpt>
      <trkpt lat="45.20637" lon="5.72678">
        <ele>633</ele>
        <time>2017-11-27T20:29:10Z</time>
      </trkpt>
      <trkpt lat="45.20635" lon="5.72689">
        <ele>631</ele>
        <time>2017-11-27T20:31:10Z</time>
      </trkpt>
      <trkpt lat="45.20629" lon="5.72701">
        <ele>628</ele>
        <time>2017-11-27T20:33:10Z</time>
      </trkpt>
      <trkpt lat="45.20622" lon="5.72707">
        <ele>626</ele>
        <time>2017-11-27T20:35:10Z</time>
      </trkpt>
      <trkpt lat="45.20613" lon="5.72706">
        <ele>624</ele>
        <time>2017-11-27T20:37:10Z</time>
      </trkpt>
      <trkpt lat="45.20603" lon="5.72699">
        <ele>624</ele>
        <time>2017-11-27T20:39:10Z</time>
      </trkpt>
      <trkpt lat="45.20599" lon="5.72704">
        <ele>622</ele>
        <time>2017-11-27T20:41:10Z</time>
      </trkpt>
      <trkpt lat="45.206" lon="5.7271">
        <ele>621</ele>
        <time>2017-11-27T20:43:10Z</time>
      </trkpt>
      <trkpt lat="45.20595" lon="5.7272">
        <ele>618</ele>
        <time>2017-11-27T20:45:10Z</time>
      </trkpt>
      <trkpt lat="45.20587" lon="5.7273">
        <ele>613</ele>
        <time>2017-11-27T20:47:10Z</time>
      </trkpt>
      <trkpt lat="45.20582" lon="5.72743">
        <ele>595</ele>
        <time>2017-11-27T20:49:10Z</time>
      </trkpt>
      <trkpt lat="45.20567" lon="5.72737">
        <ele>592</ele>
        <time>2017-11-27T20:51:10Z</time>
      </trkpt>
      <trkpt lat="45.20517" lon="5.72723">
        <ele>580</ele>
        <time>2017-11-27T20:53:10Z</time>
      </trkpt>
      <trkpt lat="45.2051" lon="5.72728">
        <ele>575</ele>
        <time>2017-11-27T20:55:10Z</time>
      </trkpt>
      <trkpt lat="45.20524" lon="5.72739">
        <ele>577</ele>
        <time>2017-11-27T20:57:10Z</time>
      </trkpt>
      <trkpt lat="45.20526" lon="5.72748">
        <ele>576</ele>
        <time>2017-11-27T20:59:10Z</time>
      </trkpt>
      <trkpt lat="45.20524" lon="5.7275">
        <ele>563</ele>
        <time>2017-11-27T21:01:10Z</time>
      </trkpt>
      <trkpt lat="45.20521" lon="5.7275">
        <ele>562</ele>
        <time>2017-11-27T21:03:10Z</time>
      </trkpt>
      <trkpt lat="45.20496" lon="5.72729">
        <ele>556</ele>
        <time>2017-11-27T21:05:10Z</time>
      </trkpt>
      <trkpt lat="45.20464" lon="5.72718">
        <ele>556</ele>
        <time>2017-11-27T21:07:10Z</time>
      </trkpt>
      <trkpt lat="45.20456" lon="5.72718">
        <ele>555</ele>
        <time>2017-11-27T21:09:10Z</time>
      </trkpt>
      <trkpt lat="45.20429" lon="5.72709">
        <ele>553</ele>
        <time>2017-11-27T21:11:10Z</time>
      </trkpt>
      <trkpt lat="45.20414" lon="5.72699">
        <ele>537</ele>
        <time>2017-11-27T21:13:10Z</time>
      </trkpt>
      <trkpt lat="45.20375" lon="5.72653">
        <ele>558</ele>
        <time>2017-11-27T21:15:10Z</time>
      </trkpt>
      <trkpt lat="45.20361" lon="5.72639">
        <ele>556</ele>
        <time>2017-11-27T21:17:10Z</time>
      </trkpt>
      <trkpt lat="45.20333" lon="5.72618">
        <ele>536</ele>
        <time>2017-11-27T21:19:10Z</time>
      </trkpt>
      <trkpt lat="45.20323" lon="5.72612">
        <ele>537</ele>
        <time>2017-11-27T21:21:10Z</time>
      </trkpt>
      <trkpt lat="45.203" lon="5.72606">
        <ele>534</ele>
        <time>2017-11-27T21:23:10Z</time>
      </trkpt>
      <trkpt lat="45.20282" lon="5.72604">
        <ele>531</ele>
        <time>2017-11-27T21:25:10Z</time>
      </trkpt>
      <trkpt lat="45.20253" lon="5.72609">
        <ele>528</ele>
        <time>2017-11-27T21:27:10Z</time>
      </trkpt>
      <trkpt lat="45.20241" lon="5.72607">
        <ele>513</ele>
        <time>2017-11-27T21:29:10Z</time>
      </trkpt>
      <trkpt lat="45.20237" lon="5.72607">
        <ele>512</ele>
        <time>2017-11-27T21:31:10Z</time>
      </trkpt>
      <trkpt lat="45.20224" lon="5.726">
        <ele>511</ele>
        <time>2017-11-27T21:33:10Z</time>
      </trkpt>
      <trkpt lat="45.20162" lon="5.72562">
        <ele>502</ele>
        <time>2017-11-27T21:35:10Z</time>
      </trkpt>
      <trkpt lat="45.20103" lon="5.72542">
        <ele>496</ele>
        <time>2017-11-27T21:37:10Z</time>
      </trkpt>
      <trkpt lat="45.20079" lon="5.72545">
        <ele>485</ele>
        <time>2017-11-27T21:39:10Z</time>
      </trkpt>
      <trkpt lat="45.2007" lon="5.72528">
        <ele>486</ele>
        <time>2017-11-27T21:41:10Z</time>
      </trkpt>
      <trkpt lat="45.20068" lon="5.72515">
        <ele>487</ele>
        <time>2017-11-27T21:43:10Z</time>
      </trkpt>
      <trkpt lat="45.20075" lon="5.72466">
        <ele>483</ele>
        <time>2017-11-27T21:45:10Z</time>
      </trkpt>
      <trkpt lat="45.2007" lon="5.72441">
        <ele>481</ele>
        <time>2017-11-27T21:47:10Z</time>
      </trkpt>
      <trkpt lat="45.20064" lon="5.72435">
        <ele>480</ele>
        <time>2017-11-27T21:49:10Z</time>
      </trkpt>
      <trkpt lat="45.20055" lon="5.72431">
        <ele>479</ele>
        <time>2017-11-27T21:51:10Z</time>
      </trkpt>
      <trkpt lat="45.20007" lon="5.72426">
        <ele>470</ele>
        <time>2017-11-27T21:53:10Z</time>
      </trkpt>
      <trkpt lat="45.19985" lon="5.72424">
        <ele>469</ele>
        <time>2017-11-27T21:55:10Z</time>
      </trkpt>
      <trkpt lat="45.1994" lon="5.72423">
        <ele>473</ele>
        <time>2017-11-27T21:57:10Z</time>
      </trkpt>
      <trkpt lat="45.19898" lon="5.72437">
        <ele>467</ele>
        <time>2017-11-27T21:59:10Z</time>
      </trkpt>
      <trkpt lat="45.19892" lon="5.72442">
        <ele>467</ele>
        <time>2017-11-27T22:01:10Z</time>
      </trkpt>
      <trkpt lat="45.19885" lon="5.72475">
        <ele>468</ele>
        <time>2017-11-27T22:03:10Z</time>
      </trkpt>
      <trkpt lat="45.19866" lon="5.72484">
        <ele>466</ele>
        <time>2017-11-27T22:05:10Z</time>
      </trkpt>
      <trkpt lat="45.19856" lon="5.72491">
        <ele>464</ele>
        <time>2017-11-27T22:07:10Z</time>
      </trkpt>
      <trkpt lat="45.19859" lon="5.72552">
        <ele>466</ele>
        <time>2017-11-27T22:09:10Z</time>
      </trkpt>
      <trkpt lat="45.19858" lon="5.72556">
        <ele>466</ele>
        <time>2017-11-27T22:11:10Z</time>
      </trkpt>
      <trkpt lat="45.19855" lon="5.72555">
        <ele>465</ele>
        <time>2017-11-27T22:13:10Z</time>
      </trkpt>
      <trkpt lat="45.1985" lon="5.72492">
        <ele>463</ele>
        <time>2017-11-27T22:15:10Z</time>
      </trkpt>
      <trkpt lat="45.19848" lon="5.72449">
        <ele>461</ele>
        <time>2017-11-27T22:17:10Z</time>
      </trkpt>
      <trkpt lat="45.19847" lon="5.72444">
        <ele>460</ele>
        <time>2017-11-27T22:19:10Z</time>
      </trkpt>
      <trkpt lat="45.19844" lon="5.72442">
        <ele>459</ele>
        <time>2017-11-27T22:21:10Z</time>
      </trkpt>
      <trkpt lat="45.19842" lon="5.72442">
        <ele>459</ele>
        <time>2017-11-27T22:23:10Z</time>
      </trkpt>
      <trkpt lat="45.19838" lon="5.72446">
        <ele>460</ele>
        <time>2017-11-27T22:25:10Z</time>
      </trkpt>
      <trkpt lat="45.19834" lon="5.72458">
        <ele>461</ele>
        <time>2017-11-27T22:27:10Z</time>
      </trkpt>
      <trkpt lat="45.19823" lon="5.72515">
        <ele>446</ele>
        <time>2017-11-27T22:29:10Z</time>
      </trkpt>
      <trkpt lat="45.19826" lon="5.72609">
        <ele>438</ele>
        <time>2017-11-27T22:31:10Z</time>
      </trkpt>
      <trkpt lat="45.19832" lon="5.72633">
        <ele>435</ele>
        <time>2017-11-27T22:33:10Z</time>
      </trkpt>
      <trkpt lat="45.19845" lon="5.72661">
        <ele>449</ele>
        <time>2017-11-27T22:35:10Z</time>
      </trkpt>
      <trkpt lat="45.19861" lon="5.72685">
        <ele>440</ele>
        <time>2017-11-27T22:37:10Z</time>
      </trkpt>
      <trkpt lat="45.19861" lon="5.72688">
        <ele>440</ele>
        <time>2017-11-27T22:39:10Z</time>
      </trkpt>
      <trkpt lat="45.19859" lon="5.72691">
        <ele>439</ele>
        <time>2017-11-27T22:41:10Z</time>
      </trkpt>
      <trkpt lat="45.19846" lon="5.72677">
        <ele>440</ele>
        <time>2017-11-27T22:43:10Z</time>
      </trkpt>
      <trkpt lat="45.19846" lon="5.72676">
        <ele>441</ele>
        <time>2017-11-27T22:45:10Z</time>
      </trkpt>
      <trkpt lat="45.19827" lon="5.72655">
        <ele>436</ele>
        <time>2017-11-27T22:47:10Z</time>
      </trkpt>
      <trkpt lat="45.19792" lon="5.72621">
        <ele>428</ele>
        <time>2017-11-27T22:49:10Z</time>
      </trkpt>
      <trkpt lat="45.19787" lon="5.72596">
        <ele>428</ele>
        <time>2017-11-27T22:51:10Z</time>
      </trkpt>
      <trkpt lat="45.19788" lon="5.72541">
        <ele>432</ele>
        <time>2017-11-27T22:53:10Z</time>
      </trkpt>
      <trkpt lat="45.19789" lon="5.72528">
        <ele>432</ele>
        <time>2017-11-27T22:55:10Z</time>
      </trkpt>
      <trkpt lat="45.19787" lon="5.72526">
        <ele>431</ele>
        <time>2017-11-27T22:57:10Z</time>
      </trkpt>
      <trkpt lat="45.19784" lon="5.72528">
        <ele>430</ele>
        <time>2017-11-27T22:59:10Z</time>
      </trkpt>
      <trkpt lat="45.19779" lon="5.72539">
        <ele>429</ele>
        <time>2017-11-27T23:01:10Z</time>
      </trkpt>
      <trkpt lat="45.19774" lon="5.7256">
        <ele>428</ele>
        <time>2017-11-27T23:03:10Z</time>
      </trkpt>
      <trkpt lat="45.1977" lon="5.72584">
        <ele>422</ele>
        <time>2017-11-27T23:05:10Z</time>
      </trkpt>
      <trkpt lat="45.19767" lon="5.72585">
        <ele>421</ele>
        <time>2017-11-27T23:07:10Z</time>
      </trkpt>
      <trkpt lat="45.19766" lon="5.72582">
        <ele>423</ele>
        <time>2017-11-27T23:09:10Z</time>
      </trkpt>
      <trkpt lat="45.19764" lon="5.72529">
        <ele>424</ele>
        <time>2017-11-27T23:11:10Z</time>
      </trkpt>
      <trkpt lat="45.19775" lon="5.72502">
        <ele>424</ele>
        <time>2017-11-27T23:13:10Z</time>
      </trkpt>
      <trkpt lat="45.19772" lon="5.72503">
        <ele>422</ele>
        <time>2017-11-27T23:15:10Z</time>
      </trkpt>
      <trkpt lat="45.19758" lon="5.72515">
        <ele>418</ele>
        <time>2017-11-27T23:17:10Z</time>
      </trkpt>
      <trkpt lat="45.19751" lon="5.72526">
        <ele>421</ele>
        <time>2017-11-27T23:19:10Z</time>
      </trkpt>
      <trkpt lat="45.19748" lon="5.72537">
        <ele>396</ele>
        <time>2017-11-27T23:21:10Z</time>
      </trkpt>
      <trkpt lat="45.19746" lon="5.72557">
        <ele>399</ele>
        <time>2017-11-27T23:23:10Z</time>
      </trkpt>
      <trkpt lat="45.19747" lon="5.72589">
        <ele>407</ele>
        <time>2017-11-27T23:25:10Z</time>
      </trkpt>
      <trkpt lat="45.19763" lon="5.72645">
        <ele>417</ele>
        <time>2017-11-27T23:27:10Z</time>
      </trkpt>
      <trkpt lat="45.19763" lon="5.72644">
        <ele>417</ele>
        <time>2017-11-27T23:29:10Z</time>
      </trkpt>
      <trkpt lat="45.19765" lon="5.7265">
        <ele>416</ele>
        <time>2017-11-27T23:31:10Z</time>
      </trkpt>
      <trkpt lat="45.19778" lon="5.7267">
        <ele>405</ele>
        <time>2017-11-27T23:33:10Z</time>
      </trkpt>
      <trkpt lat="45.19814" lon="5.72704">
        <ele>410</ele>
        <time>2017-11-27T23:35:10Z</time>
      </trkpt>
      <trkpt lat="45.19813" lon="5.72704">
        <ele>410</ele>
        <time>2017-11-27T23:37:10Z</time>
      </trkpt>
      <trkpt lat="45.19831" lon="5.72719">
        <ele>410</ele>
        <time>2017-11-27T23:39:10Z</time>
      </trkpt>
      <trkpt lat="45.19835" lon="5.72727">
        <ele>428</ele>
        <time>2017-11-27T23:41:10Z</time>
      </trkpt>
      <trkpt lat="45.19834" lon="5.72739">
        <ele>422</ele>
        <time>2017-11-27T23:43:10Z</time>
      </trkpt>
      <trkpt lat="45.19842" lon="5.72748">
        <ele>421</ele>
        <time>2017-11-27T23:45:10Z</time>
      </trkpt>
      <trkpt lat="45.19847" lon="5.72735">
        <ele>427</ele>
        <time>2017-11-27T23:47:10Z</time>
      </trkpt>
      <trkpt lat="45.19854" lon="5.72735">
        <ele>429</ele>
        <time>2017-11-27T23:49:10Z</time>
      </trkpt>
      <trkpt lat="45.19857" lon="5.72741">
        <ele>429</ele>
        <time>2017-11-27T23:51:10Z</time>
      </trkpt>
      <trkpt lat="45.19857" lon="5.72764">
        <ele>403</ele>
        <time>2017-11-27T23:53:10Z</time>
      </trkpt>
      <trkpt lat="45.19856" lon="5.72754">
        <ele>405</ele>
        <time>2017-11-27T23:55:10Z</time>
      </trkpt>
      <trkpt lat="45.19854" lon="5.72754">
        <ele>406</ele>
        <time>2017-11-27T23:57:10Z</time>
      </trkpt>
      <trkpt lat="45.19853" lon="5.72763">
        <ele>404</ele>
        <time>2017-11-27T23:59:10Z</time>
      </trkpt>
      <trkpt lat="45.19859" lon="5.72771">
        <ele>402</ele>
        <time>2017-11-28T00:01:10Z</time>
      </trkpt>
      <trkpt lat="45.19858" lon="5.72773">
        <ele>401</ele>
        <time>2017-11-28T00:03:10Z</time>
      </trkpt>
      <trkpt lat="45.19855" lon="5.72768">
        <ele>402</ele>
        <time>2017-11-28T00:05:10Z</time>
      </trkpt>
      <trkpt lat="45.19854" lon="5.7277">
        <ele>402</ele>
        <time>2017-11-28T00:07:10Z</time>
      </trkpt>
      <trkpt lat="45.19857" lon="5.72774">
        <ele>401</ele>
        <time>2017-11-28T00:09:10Z</time>
      </trkpt>
      <trkpt lat="45.19848" lon="5.72766">
        <ele>403</ele>
        <time>2017-11-28T00:11:10Z</time>
      </trkpt>
      <trkpt lat="45.19854" lon="5.72775">
        <ele>400</ele>
        <time>2017-11-28T00:13:10Z</time>
      </trkpt>
      <trkpt lat="45.19854" lon="5.72778">
        <ele>399</ele>
        <time>2017-11-28T00:15:10Z</time>
      </trkpt>
      <trkpt lat="45.19853" lon="5.72778">
        <ele>399</ele>
        <time>2017-11-28T00:17:10Z</time>
      </trkpt>
      <trkpt lat="45.19818" lon="5.72753">
        <ele>390</ele>
        <time>2017-11-28T00:19:10Z</time>
      </trkpt>
      <trkpt lat="45.19809" lon="5.72745">
        <ele>404</ele>
        <time>2017-11-28T00:21:10Z</time>
      </trkpt>
      <trkpt lat="45.19809" lon="5.72744">
        <ele>404</ele>
        <time>2017-11-28T00:23:10Z</time>
      </trkpt>
      <trkpt lat="45.19801" lon="5.72735">
        <ele>401</ele>
        <time>2017-11-28T00:25:10Z</time>
      </trkpt>
      <trkpt lat="45.19792" lon="5.72731">
        <ele>398</ele>
        <time>2017-11-28T00:27:10Z</time>
      </trkpt>
      <trkpt lat="45.19791" lon="5.72733">
        <ele>398</ele>
        <time>2017-11-28T00:29:10Z</time>
      </trkpt>
      <trkpt lat="45.19792" lon="5.72736">
        <ele>398</ele>
        <time>2017-11-28T00:31:10Z</time>
      </trkpt>
      <trkpt lat="45.1982" lon="5.72777">
        <ele>377</ele>
        <time>2017-11-28T00:33:10Z</time>
      </trkpt>
      <trkpt lat="45.1982" lon="5.72776">
        <ele>378</ele>
        <time>2017-11-28T00:35:10Z</time>
      </trkpt>
      <trkpt lat="45.19846" lon="5.72801">
        <ele>389</ele>
        <time>2017-11-28T00:37:10Z</time>
      </trkpt>
      <trkpt lat="45.19845" lon="5.72803">
        <ele>388</ele>
        <time>2017-11-28T00:39:10Z</time>
      </trkpt>
      <trkpt lat="45.19816" lon="5.72785">
        <ele>372</ele>
        <time>2017-11-28T00:41:10Z</time>
      </trkpt>
      <trkpt lat="45.19815" lon="5.72785">
        <ele>371</ele>
        <time>2017-11-28T00:43:10Z</time>
      </trkpt>
      <trkpt lat="45.19802" lon="5.72776">
        <ele>371</ele>
        <time>2017-11-28T00:45:10Z</time>
      </trkpt>
      <trkpt lat="45.19799" lon="5.72775">
        <ele>370</ele>
        <time>2017-11-28T00:47:10Z</time>
      </trkpt>
      <trkpt lat="45.19798" lon="5.72776">
        <ele>369</ele>
        <time>2017-11-28T00:49:10Z</time>
      </trkpt>
      <trkpt lat="45.19798" lon="5.72779">
        <ele>368</ele>
        <time>2017-11-28T00:51:10Z</time>
      </trkpt>
      <trkpt lat="45.19822" lon="5.72801">
        <ele>366</ele>
        <time>2017-11-28T00:53:10Z</time>
      </trkpt>
      <trkpt lat="45.19821" lon="5.72801">
        <ele>366</ele>
        <time>2017-11-28T00:55:10Z</time>
      </trkpt>
      <trkpt lat="45.19846" lon="5.72826">
        <ele>375</ele>
        <time>2017-11-28T00:57:10Z</time>
      </trkpt>
      <trkpt lat="45.19846" lon="5.7283">
        <ele>373</ele>
        <time>2017-11-28T00:59:10Z</time>
      </trkpt>
      <trkpt lat="45.19844" lon="5.72831">
        <ele>371</ele>
        <time>2017-11-28T01:01:10Z</time>
      </trkpt>
      <trkpt lat="45.19816" lon="5.72812">
        <ele>362</ele>
        <time>2017-11-28T01:03:10Z</time>
      </trkpt>
      <trkpt lat="45.19815" lon="5.72813">
        <ele>362</ele>
        <time>2017-11-28T01:05:10Z</time>
      </trkpt>
      <trkpt lat="45.19817" lon="5.72817">
        <ele>361</ele>
        <time>2017-11-28T01:07:10Z</time>
      </trkpt>
      <trkpt lat="45.19821" lon="5.72822">
        <ele>360</ele>
        <time>2017-11-28T01:09:10Z</time>
      </trkpt>
      <trkpt lat="45.19834" lon="5.72831">
        <ele>361</ele>
        <time>2017-11-28T01:11:10Z</time>
      </trkpt>
      <trkpt lat="45.19835" lon="5.72834">
        <ele>357</ele>
        <time>2017-11-28T01:13:10Z</time>
      </trkpt>
      <trkpt lat="45.19834" lon="5.72836">
        <ele>356</ele>
        <time>2017-11-28T01:15:10Z</time>
      </trkpt>
      <trkpt lat="45.19816" lon="5.72828">
        <ele>359</ele>
        <time>2017-11-28T01:17:10Z</time>
      </trkpt>
      <trkpt lat="45.19811" lon="5.72824">
        <ele>359</ele>
        <time>2017-11-28T01:19:10Z</time>
      </trkpt>
      <trkpt lat="45.1981" lon="5.72824">
        <ele>359</ele>
        <time>2017-11-28T01:21:10Z</time>
      </trkpt>
      <trkpt lat="45.19792" lon="5.72809">
        <ele>358</ele>
        <time>2017-11-28T01:23:10Z</time>
      </trkpt>
      <trkpt lat="45.19791" lon="5.72811">
        <ele>358</ele>
        <time>2017-11-28T01:25:10Z</time>
      </trkpt>
      <trkpt lat="45.19792" lon="5.72815">
        <ele>357</ele>
        <time>2017-11-28T01:27:10Z</time>
      </trkpt>
      <trkpt lat="45.19825" lon="5.72845">
        <ele>343</ele>
        <time>2017-11-28T01:29:10Z</time>
      </trkpt>
      <trkpt lat="45.19825" lon="5.72847">
        <ele>341</ele>
        <time>2017-11-28T01:31:10Z</time>
      </trkpt>
      <trkpt lat="45.19823" lon="5.72848">
        <ele>340</ele>
        <time>2017-11-28T01:33:10Z</time>
      </trkpt>
      <trkpt lat="45.19796" lon="5.72831">
        <ele>356</ele>
        <time>2017-11-28T01:35:10Z</time>
      </trkpt>
      <trkpt lat="45.19757" lon="5.72805">
        <ele>350</ele>
        <time>2017-11-28T01:37:10Z</time>
      </trkpt>
      <trkpt lat="45.19755" lon="5.72805">
        <ele>350</ele>
        <time>2017-11-28T01:39:10Z</time>
      </trkpt>
      <trkpt lat="45.19755" lon="5.72809">
        <ele>347</ele>
        <time>2017-11-28T01:41:10Z</time>
      </trkpt>
      <trkpt lat="45.19759" lon="5.72815">
        <ele>345</ele>
        <time>2017-11-28T01:43:10Z</time>
      </trkpt>
      <trkpt lat="45.19788" lon="5.7285">
        <ele>328</ele>
        <time>2017-11-28T01:45:10Z</time>
      </trkpt>
      <trkpt lat="45.19787" lon="5.7285">
        <ele>328</ele>
        <time>2017-11-28T01:47:10Z</time>
      </trkpt>
      <trkpt lat="45.19812" lon="5.72879">
        <ele>327</ele>
        <time>2017-11-28T01:49:10Z</time>
      </trkpt>
      <trkpt lat="45.19812" lon="5.72881">
        <ele>326</ele>
        <time>2017-11-28T01:51:10Z</time>
      </trkpt>
      <trkpt lat="45.19772" lon="5.72857">
        <ele>325</ele>
        <time>2017-11-28T01:53:10Z</time>
      </trkpt>
      <trkpt lat="45.19771" lon="5.72857">
        <ele>325</ele>
        <time>2017-11-28T01:55:10Z</time>
      </trkpt>
      <trkpt lat="45.1975" lon="5.72841">
        <ele>316</ele>
        <time>2017-11-28T01:57:10Z</time>
      </trkpt>
      <trkpt lat="45.19743" lon="5.72841">
        <ele>314</ele>
        <time>2017-11-28T01:59:10Z</time>
      </trkpt>
      <trkpt lat="45.19744" lon="5.72845">
        <ele>312</ele>
        <time>2017-11-28T02:01:10Z</time>
      </trkpt>
      <trkpt lat="45.19798" lon="5.72918">
        <ele>298</ele>
        <time>2017-11-28T02:03:10Z</time>
      </trkpt>
      <trkpt lat="45.19794" lon="5.7292">
        <ele>297</ele>
        <time>2017-11-28T02:05:10Z</time>
      </trkpt>
      <trkpt lat="45.19762" lon="5.729">
        <ele>315</ele>
        <time>2017-11-28T02:07:10Z</time>
      </trkpt>
      <trkpt lat="45.19762" lon="5.72899">
        <ele>315</ele>
        <time>2017-11-28T02:09:10Z</time>
      </trkpt>
      <trkpt lat="45.19709" lon="5.72865">
        <ele>296</ele>
        <time>2017-11-28T02:11:10Z</time>
      </trkpt>
      <trkpt lat="45.19697" lon="5.72851">
        <ele>295</ele>
        <time>2017-11-28T02:13:10Z</time>
      </trkpt>
      <trkpt lat="45.19693" lon="5.7285">
        <ele>294</ele>
        <time>2017-11-28T02:15:10Z</time>
      </trkpt>
      <trkpt lat="45.19692" lon="5.72852">
        <ele>294</ele>
        <time>2017-11-28T02:17:10Z</time>
      </trkpt>
      <trkpt lat="45.19693" lon="5.72858">
        <ele>293</ele>
        <time>2017-11-28T02:19:10Z</time>
      </trkpt>
      <trkpt lat="45.19759" lon="5.72969">
        <ele>284</ele>
        <time>2017-11-28T02:21:10Z</time>
      </trkpt>
      <trkpt lat="45.19759" lon="5.72968">
        <ele>284</ele>
        <time>2017-11-28T02:23:10Z</time>
      </trkpt>
      <trkpt lat="45.19774" lon="5.72989">
        <ele>280</ele>
        <time>2017-11-28T02:25:10Z</time>
      </trkpt>
      <trkpt lat="45.19791" lon="5.73005">
        <ele>261</ele>
        <time>2017-11-28T02:27:10Z</time>
      </trkpt>
      <trkpt lat="45.19812" lon="5.73019">
        <ele>263</ele>
        <time>2017-11-28T02:29:10Z</time>
      </trkpt>
      <trkpt lat="45.19812" lon="5.73022">
        <ele>263</ele>
        <time>2017-11-28T02:31:10Z</time>
      </trkpt>
      <trkpt lat="45.19809" lon="5.73023">
        <ele>262</ele>
        <time>2017-11-28T02:33:10Z</time>
      </trkpt>
      <trkpt lat="45.19767" lon="5.73006">
        <ele>260</ele>
        <time>2017-11-28T02:35:10Z</time>
      </trkpt>
      <trkpt lat="45.19765" lon="5.73007">
        <ele>260</ele>
        <time>2017-11-28T02:37:10Z</time>
      </trkpt>
      <trkpt lat="45.19766" lon="5.73011">
        <ele>260</ele>
        <time>2017-11-28T02:39:10Z</time>
      </trkpt>
      <trkpt lat="45.19805" lon="5.73036">
        <ele>259</ele>
        <time>2017-11-28T02:41:10Z</time>
      </trkpt>
      <trkpt lat="45.19806" lon="5.73042">
        <ele>258</ele>
        <time>2017-11-28T02:43:10Z</time>
      </trkpt>
      <trkpt lat="45.19771" lon="5.73031">
        <ele>256</ele>
        <time>2017-11-28T02:45:10Z</time>
      </trkpt>
      <trkpt lat="45.1977" lon="5.73031">
        <ele>256</ele>
        <time>2017-11-28T02:47:10Z</time>
      </trkpt>
      <trkpt lat="45.19758" lon="5.73027">
        <ele>257</ele>
        <time>2017-11-28T02:49:10Z</time>
      </trkpt>
      <trkpt lat="45.19755" lon="5.73028">
        <ele>256</ele>
        <time>2017-11-28T02:51:10Z</time>
      </trkpt>
      <trkpt lat="45.19755" lon="5.73031">
        <ele>256</ele>
        <time>2017-11-28T02:53:10Z</time>
      </trkpt>
      <trkpt lat="45.19796" lon="5.73058">
        <ele>255</ele>
        <time>2017-11-28T02:55:10Z</time>
      </trkpt>
      <trkpt lat="45.19798" lon="5.73062">
        <ele>254</ele>
        <time>2017-11-28T02:57:10Z</time>
      </trkpt>
      <trkpt lat="45.19796" lon="5.73063">
        <ele>254</ele>
        <time>2017-11-28T02:59:10Z</time>
      </trkpt>
      <trkpt lat="45.19752" lon="5.73051">
        <ele>250</ele>
        <time>2017-11-28T03:01:10Z</time>
      </trkpt>
      <trkpt lat="45.19749" lon="5.73052">
        <ele>239</ele>
        <time>2017-11-28T03:03:10Z</time>
      </trkpt>
      <trkpt lat="45.19752" lon="5.73057">
        <ele>248</ele>
        <time>2017-11-28T03:05:10Z</time>
      </trkpt>
      <trkpt lat="45.19806" lon="5.73094">
        <ele>241</ele>
        <time>2017-11-28T03:07:10Z</time>
      </trkpt>
      <trkpt lat="45.19806" lon="5.73096">
        <ele>241</ele>
        <time>2017-11-28T03:09:10Z</time>
      </trkpt>
      <trkpt lat="45.19803" lon="5.73098">
        <ele>240</ele>
        <time>2017-11-28T03:11:10Z</time>
      </trkpt>
      <trkpt lat="45.19799" lon="5.73098">
        <ele>239</ele>
        <time>2017-11-28T03:13:10Z</time>
      </trkpt>
      <trkpt lat="45.19776" lon="5.73092">
        <ele>235</ele>
        <time>2017-11-28T03:15:10Z</time>
      </trkpt>
      <trkpt lat="45.1976" lon="5.73087">
        <ele>232</ele>
        <time>2017-11-28T03:17:10Z</time>
      </trkpt>
      <trkpt lat="45.19759" lon="5.73091">
        <ele>232</ele>
        <time>2017-11-28T03:19:10Z</time>
      </trkpt>
      <trkpt lat="45.19761" lon="5.73094">
        <ele>232</ele>
        <time>2017-11-28T03:21:10Z</time>
      </trkpt>
      <trkpt lat="45.19773" lon="5.73105">
        <ele>234</ele>
        <time>2017-11-28T03:23:10Z</time>
      </trkpt>
      <trkpt lat="45.19792" lon="5.7312">
        <ele>235</ele>
        <time>2017-11-28T03:25:10Z</time>
      </trkpt>
      <trkpt lat="45.19803" lon="5.73122">
        <ele>236</ele>
        <time>2017-11-28T03:27:10Z</time>
      </trkpt>
      <trkpt lat="45.19805" lon="5.73124">
        <ele>236</ele>
        <time>2017-11-28T03:29:10Z</time>
      </trkpt>
      <trkpt lat="45.19804" lon="5.73128">
        <ele>236</ele>
        <time>2017-11-28T03:31:10Z</time>
      </trkpt>
      <trkpt lat="45.19792" lon="5.73129">
        <ele>234</ele>
        <time>2017-11-28T03:33:10Z</time>
      </trkpt>
      <trkpt lat="45.19783" lon="5.73133">
        <ele>233</ele>
        <time>2017-11-28T03:35:10Z</time>
      </trkpt>
      <trkpt lat="45.19776" lon="5.73154">
        <ele>230</ele>
        <time>2017-11-28T03:37:10Z</time>
      </trkpt>
      <trkpt lat="45.19774" lon="5.7317">
        <ele>221</ele>
        <time>2017-11-28T03:39:10Z</time>
      </trkpt>
      <trkpt lat="45.19774" lon="5.73185">
        <ele>221</ele>
        <time>2017-11-28T03:41:10Z</time>
      </trkpt>
    </trkseg>
  </trk>
</gpx>